<?xml version="1.0" encoding="UTF-8" standalone="no" ?>
<gpx xmlns="http://www.topografix.com/GPX/1/1" xmlns:xsi="http://www.w3.org/2001/XMLSchema-instance" xsi:schemaLocation="http://www.topografix.com/GPX/1/1 http://www.topografix.com/GPX/1/1/gpx.xsd" version="1.1" creator="VisuGPX - https://www.visugpx.com">
  <metadata>
    <name>L'Explo Rando</name>
  </metadata>
  <wpt lat="45.76038" lon="6.53374">
    <ele>1658.5</ele>
    <name><![CDATA[Signaleur]]></name>
    <desc><![CDATA[]]></desc>
  </wpt>
  <wpt lat="45.76008" lon="6.53371">
    <ele>1657.9</ele>
    <name><![CDATA[Ravitaillement]]></name>
    <desc><![CDATA[]]></desc>
  </wpt>
  <trk>
    <name><![CDATA[Diamant VTT 2025 - Explo rando 14km VF-21431543]]></name>
    <trkseg>
      <trkpt lat="45.75957" lon="6.53356">
        <ele>1657</ele>
        <time>2025-06-19T14:25:44Z</time>
      </trkpt>
      <trkpt lat="45.75961" lon="6.5335">
        <ele>1657</ele>
        <time>2025-06-19T14:25:45Z</time>
      </trkpt>
      <trkpt lat="45.7598" lon="6.53325">
        <ele>1657</ele>
        <time>2025-06-19T14:25:51Z</time>
      </trkpt>
      <trkpt lat="45.76001" lon="6.53308">
        <ele>1657</ele>
        <time>2025-06-19T14:25:57Z</time>
      </trkpt>
      <trkpt lat="45.76013" lon="6.53304">
        <ele>1657</ele>
        <time>2025-06-19T14:26:00Z</time>
      </trkpt>
      <trkpt lat="45.76025" lon="6.53303">
        <ele>1657</ele>
        <time>2025-06-19T14:26:03Z</time>
      </trkpt>
      <trkpt lat="45.76029" lon="6.53331">
        <ele>1658</ele>
        <time>2025-06-19T14:26:07Z</time>
      </trkpt>
      <trkpt lat="45.76088" lon="6.53305">
        <ele>1657</ele>
        <time>2025-06-19T14:26:22Z</time>
      </trkpt>
      <trkpt lat="45.76066" lon="6.53238">
        <ele>1654</ele>
        <time>2025-06-19T14:26:34Z</time>
      </trkpt>
      <trkpt lat="45.76156" lon="6.53199">
        <ele>1650</ele>
        <time>2025-06-19T14:26:56Z</time>
      </trkpt>
      <trkpt lat="45.76161" lon="6.53199">
        <ele>1650</ele>
        <time>2025-06-19T14:26:57Z</time>
      </trkpt>
      <trkpt lat="45.76165" lon="6.53196">
        <ele>1650</ele>
        <time>2025-06-19T14:26:58Z</time>
      </trkpt>
      <trkpt lat="45.76171" lon="6.53188">
        <ele>1649</ele>
        <time>2025-06-19T14:27:00Z</time>
      </trkpt>
      <trkpt lat="45.76174" lon="6.53185">
        <ele>1648</ele>
        <time>2025-06-19T14:27:01Z</time>
      </trkpt>
      <trkpt lat="45.76182" lon="6.53185">
        <ele>1648</ele>
        <time>2025-06-19T14:27:03Z</time>
      </trkpt>
      <trkpt lat="45.76197" lon="6.53194">
        <ele>1648</ele>
        <time>2025-06-19T14:27:06Z</time>
      </trkpt>
      <trkpt lat="45.76201" lon="6.53194">
        <ele>1648</ele>
        <time>2025-06-19T14:27:07Z</time>
      </trkpt>
      <trkpt lat="45.76212" lon="6.53187">
        <ele>1646</ele>
        <time>2025-06-19T14:27:10Z</time>
      </trkpt>
      <trkpt lat="45.7622" lon="6.53178">
        <ele>1645</ele>
        <time>2025-06-19T14:27:13Z</time>
      </trkpt>
      <trkpt lat="45.76225" lon="6.53177">
        <ele>1645</ele>
        <time>2025-06-19T14:27:14Z</time>
      </trkpt>
      <trkpt lat="45.76229" lon="6.53178">
        <ele>1645</ele>
        <time>2025-06-19T14:27:15Z</time>
      </trkpt>
      <trkpt lat="45.76232" lon="6.53176">
        <ele>1644</ele>
        <time>2025-06-19T14:27:15Z</time>
      </trkpt>
      <trkpt lat="45.76241" lon="6.53163">
        <ele>1642</ele>
        <time>2025-06-19T14:27:18Z</time>
      </trkpt>
      <trkpt lat="45.76245" lon="6.5316">
        <ele>1642</ele>
        <time>2025-06-19T14:27:19Z</time>
      </trkpt>
      <trkpt lat="45.76248" lon="6.53161">
        <ele>1642</ele>
        <time>2025-06-19T14:27:20Z</time>
      </trkpt>
      <trkpt lat="45.7625" lon="6.53163">
        <ele>1642</ele>
        <time>2025-06-19T14:27:21Z</time>
      </trkpt>
      <trkpt lat="45.76255" lon="6.53173">
        <ele>1643</ele>
        <time>2025-06-19T14:27:23Z</time>
      </trkpt>
      <trkpt lat="45.76256" lon="6.53174">
        <ele>1643</ele>
        <time>2025-06-19T14:27:23Z</time>
      </trkpt>
      <trkpt lat="45.7626" lon="6.53175">
        <ele>1643</ele>
        <time>2025-06-19T14:27:24Z</time>
      </trkpt>
      <trkpt lat="45.76263" lon="6.5317">
        <ele>1642</ele>
        <time>2025-06-19T14:27:25Z</time>
      </trkpt>
      <trkpt lat="45.76263" lon="6.53167">
        <ele>1641</ele>
        <time>2025-06-19T14:27:26Z</time>
      </trkpt>
      <trkpt lat="45.76262" lon="6.53161">
        <ele>1641</ele>
        <time>2025-06-19T14:27:27Z</time>
      </trkpt>
      <trkpt lat="45.76261" lon="6.53158">
        <ele>1641</ele>
        <time>2025-06-19T14:27:27Z</time>
      </trkpt>
      <trkpt lat="45.76256" lon="6.53152">
        <ele>1640</ele>
        <time>2025-06-19T14:27:29Z</time>
      </trkpt>
      <trkpt lat="45.76249" lon="6.53147">
        <ele>1640</ele>
        <time>2025-06-19T14:27:30Z</time>
      </trkpt>
      <trkpt lat="45.76248" lon="6.53146">
        <ele>1640</ele>
        <time>2025-06-19T14:27:31Z</time>
      </trkpt>
      <trkpt lat="45.76248" lon="6.53141">
        <ele>1640</ele>
        <time>2025-06-19T14:27:32Z</time>
      </trkpt>
      <trkpt lat="45.76251" lon="6.53138">
        <ele>1640</ele>
        <time>2025-06-19T14:27:32Z</time>
      </trkpt>
      <trkpt lat="45.76252" lon="6.53138">
        <ele>1639</ele>
        <time>2025-06-19T14:27:33Z</time>
      </trkpt>
      <trkpt lat="45.76259" lon="6.53142">
        <ele>1639</ele>
        <time>2025-06-19T14:27:34Z</time>
      </trkpt>
      <trkpt lat="45.76267" lon="6.53144">
        <ele>1639</ele>
        <time>2025-06-19T14:27:36Z</time>
      </trkpt>
      <trkpt lat="45.76272" lon="6.53147">
        <ele>1639</ele>
        <time>2025-06-19T14:27:38Z</time>
      </trkpt>
      <trkpt lat="45.76276" lon="6.53146">
        <ele>1639</ele>
        <time>2025-06-19T14:27:39Z</time>
      </trkpt>
      <trkpt lat="45.76278" lon="6.53143">
        <ele>1639</ele>
        <time>2025-06-19T14:27:39Z</time>
      </trkpt>
      <trkpt lat="45.76277" lon="6.53138">
        <ele>1638</ele>
        <time>2025-06-19T14:27:40Z</time>
      </trkpt>
      <trkpt lat="45.76267" lon="6.53117">
        <ele>1637</ele>
        <time>2025-06-19T14:27:44Z</time>
      </trkpt>
      <trkpt lat="45.76267" lon="6.53111">
        <ele>1636</ele>
        <time>2025-06-19T14:27:45Z</time>
      </trkpt>
      <trkpt lat="45.76268" lon="6.53109">
        <ele>1636</ele>
        <time>2025-06-19T14:27:46Z</time>
      </trkpt>
      <trkpt lat="45.76272" lon="6.53108">
        <ele>1636</ele>
        <time>2025-06-19T14:27:47Z</time>
      </trkpt>
      <trkpt lat="45.76287" lon="6.53117">
        <ele>1636</ele>
        <time>2025-06-19T14:27:50Z</time>
      </trkpt>
      <trkpt lat="45.76292" lon="6.53118">
        <ele>1636</ele>
        <time>2025-06-19T14:27:52Z</time>
      </trkpt>
      <trkpt lat="45.76295" lon="6.53116">
        <ele>1635</ele>
        <time>2025-06-19T14:27:52Z</time>
      </trkpt>
      <trkpt lat="45.76296" lon="6.53113">
        <ele>1635</ele>
        <time>2025-06-19T14:27:53Z</time>
      </trkpt>
      <trkpt lat="45.76299" lon="6.53101">
        <ele>1634</ele>
        <time>2025-06-19T14:27:55Z</time>
      </trkpt>
      <trkpt lat="45.76301" lon="6.53099">
        <ele>1633</ele>
        <time>2025-06-19T14:27:55Z</time>
      </trkpt>
      <trkpt lat="45.76305" lon="6.53097">
        <ele>1633</ele>
        <time>2025-06-19T14:27:56Z</time>
      </trkpt>
      <trkpt lat="45.76307" lon="6.53096">
        <ele>1633</ele>
        <time>2025-06-19T14:27:57Z</time>
      </trkpt>
      <trkpt lat="45.76309" lon="6.53093">
        <ele>1632</ele>
        <time>2025-06-19T14:27:58Z</time>
      </trkpt>
      <trkpt lat="45.76311" lon="6.53085">
        <ele>1631</ele>
        <time>2025-06-19T14:27:59Z</time>
      </trkpt>
      <trkpt lat="45.76311" lon="6.53082">
        <ele>1631</ele>
        <time>2025-06-19T14:28:00Z</time>
      </trkpt>
      <trkpt lat="45.76304" lon="6.5307">
        <ele>1632</ele>
        <time>2025-06-19T14:28:02Z</time>
      </trkpt>
      <trkpt lat="45.76299" lon="6.53056">
        <ele>1632</ele>
        <time>2025-06-19T14:28:05Z</time>
      </trkpt>
      <trkpt lat="45.76298" lon="6.53049">
        <ele>1632</ele>
        <time>2025-06-19T14:28:06Z</time>
      </trkpt>
      <trkpt lat="45.76297" lon="6.5304">
        <ele>1632</ele>
        <time>2025-06-19T14:28:07Z</time>
      </trkpt>
      <trkpt lat="45.76296" lon="6.53037">
        <ele>1632</ele>
        <time>2025-06-19T14:28:08Z</time>
      </trkpt>
      <trkpt lat="45.7629" lon="6.53032">
        <ele>1632</ele>
        <time>2025-06-19T14:28:09Z</time>
      </trkpt>
      <trkpt lat="45.76287" lon="6.53027">
        <ele>1632</ele>
        <time>2025-06-19T14:28:10Z</time>
      </trkpt>
      <trkpt lat="45.76286" lon="6.53021">
        <ele>1631</ele>
        <time>2025-06-19T14:28:12Z</time>
      </trkpt>
      <trkpt lat="45.76285" lon="6.53019">
        <ele>1631</ele>
        <time>2025-06-19T14:28:12Z</time>
      </trkpt>
      <trkpt lat="45.76279" lon="6.53013">
        <ele>1631</ele>
        <time>2025-06-19T14:28:14Z</time>
      </trkpt>
      <trkpt lat="45.76261" lon="6.53031">
        <ele>1631</ele>
        <time>2025-06-19T14:28:19Z</time>
      </trkpt>
      <trkpt lat="45.76258" lon="6.53034">
        <ele>1631</ele>
        <time>2025-06-19T14:28:20Z</time>
      </trkpt>
      <trkpt lat="45.76251" lon="6.53039">
        <ele>1631</ele>
        <time>2025-06-19T14:28:21Z</time>
      </trkpt>
      <trkpt lat="45.76238" lon="6.53044">
        <ele>1632</ele>
        <time>2025-06-19T14:28:25Z</time>
      </trkpt>
      <trkpt lat="45.76232" lon="6.53043">
        <ele>1632</ele>
        <time>2025-06-19T14:28:26Z</time>
      </trkpt>
      <trkpt lat="45.76221" lon="6.53036">
        <ele>1632</ele>
        <time>2025-06-19T14:28:29Z</time>
      </trkpt>
      <trkpt lat="45.76217" lon="6.53036">
        <ele>1632</ele>
        <time>2025-06-19T14:28:30Z</time>
      </trkpt>
      <trkpt lat="45.76207" lon="6.5304">
        <ele>1632</ele>
        <time>2025-06-19T14:28:32Z</time>
      </trkpt>
      <trkpt lat="45.76201" lon="6.5304">
        <ele>1633</ele>
        <time>2025-06-19T14:28:34Z</time>
      </trkpt>
      <trkpt lat="45.76197" lon="6.53038">
        <ele>1632</ele>
        <time>2025-06-19T14:28:35Z</time>
      </trkpt>
      <trkpt lat="45.76189" lon="6.53034">
        <ele>1632</ele>
        <time>2025-06-19T14:28:37Z</time>
      </trkpt>
      <trkpt lat="45.76183" lon="6.53026">
        <ele>1631</ele>
        <time>2025-06-19T14:28:38Z</time>
      </trkpt>
      <trkpt lat="45.76176" lon="6.53024">
        <ele>1631</ele>
        <time>2025-06-19T14:28:40Z</time>
      </trkpt>
      <trkpt lat="45.7617" lon="6.53019">
        <ele>1631</ele>
        <time>2025-06-19T14:28:42Z</time>
      </trkpt>
      <trkpt lat="45.76164" lon="6.5302">
        <ele>1631</ele>
        <time>2025-06-19T14:28:43Z</time>
      </trkpt>
      <trkpt lat="45.76157" lon="6.53024">
        <ele>1632</ele>
        <time>2025-06-19T14:28:45Z</time>
      </trkpt>
      <trkpt lat="45.76153" lon="6.53024">
        <ele>1633</ele>
        <time>2025-06-19T14:28:46Z</time>
      </trkpt>
      <trkpt lat="45.76148" lon="6.5302">
        <ele>1632</ele>
        <time>2025-06-19T14:28:47Z</time>
      </trkpt>
      <trkpt lat="45.76142" lon="6.53018">
        <ele>1633</ele>
        <time>2025-06-19T14:28:49Z</time>
      </trkpt>
      <trkpt lat="45.76137" lon="6.53013">
        <ele>1632</ele>
        <time>2025-06-19T14:28:50Z</time>
      </trkpt>
      <trkpt lat="45.76127" lon="6.53007">
        <ele>1633</ele>
        <time>2025-06-19T14:28:53Z</time>
      </trkpt>
      <trkpt lat="45.76118" lon="6.52997">
        <ele>1632</ele>
        <time>2025-06-19T14:28:55Z</time>
      </trkpt>
      <trkpt lat="45.76112" lon="6.52993">
        <ele>1632</ele>
        <time>2025-06-19T14:28:57Z</time>
      </trkpt>
      <trkpt lat="45.76108" lon="6.52989">
        <ele>1632</ele>
        <time>2025-06-19T14:28:58Z</time>
      </trkpt>
      <trkpt lat="45.76099" lon="6.52979">
        <ele>1631</ele>
        <time>2025-06-19T14:29:01Z</time>
      </trkpt>
      <trkpt lat="45.76094" lon="6.52977">
        <ele>1631</ele>
        <time>2025-06-19T14:29:02Z</time>
      </trkpt>
      <trkpt lat="45.76085" lon="6.52975">
        <ele>1632</ele>
        <time>2025-06-19T14:29:04Z</time>
      </trkpt>
      <trkpt lat="45.76065" lon="6.52976">
        <ele>1633</ele>
        <time>2025-06-19T14:29:09Z</time>
      </trkpt>
      <trkpt lat="45.76046" lon="6.52978">
        <ele>1635</ele>
        <time>2025-06-19T14:29:13Z</time>
      </trkpt>
      <trkpt lat="45.76036" lon="6.52976">
        <ele>1635</ele>
        <time>2025-06-19T14:29:15Z</time>
      </trkpt>
      <trkpt lat="45.76028" lon="6.5298">
        <ele>1637</ele>
        <time>2025-06-19T14:29:17Z</time>
      </trkpt>
      <trkpt lat="45.76024" lon="6.52979">
        <ele>1637</ele>
        <time>2025-06-19T14:29:18Z</time>
      </trkpt>
      <trkpt lat="45.76018" lon="6.52976">
        <ele>1637</ele>
        <time>2025-06-19T14:29:20Z</time>
      </trkpt>
      <trkpt lat="45.76011" lon="6.52973">
        <ele>1637</ele>
        <time>2025-06-19T14:29:21Z</time>
      </trkpt>
      <trkpt lat="45.75993" lon="6.52959">
        <ele>1636</ele>
        <time>2025-06-19T14:29:26Z</time>
      </trkpt>
      <trkpt lat="45.7599" lon="6.52958">
        <ele>1636</ele>
        <time>2025-06-19T14:29:27Z</time>
      </trkpt>
      <trkpt lat="45.75988" lon="6.52959">
        <ele>1636</ele>
        <time>2025-06-19T14:29:27Z</time>
      </trkpt>
      <trkpt lat="45.75987" lon="6.52963">
        <ele>1637</ele>
        <time>2025-06-19T14:29:28Z</time>
      </trkpt>
      <trkpt lat="45.7599" lon="6.52966">
        <ele>1637</ele>
        <time>2025-06-19T14:29:29Z</time>
      </trkpt>
      <trkpt lat="45.75996" lon="6.52967">
        <ele>1637</ele>
        <time>2025-06-19T14:29:30Z</time>
      </trkpt>
      <trkpt lat="45.75998" lon="6.5297">
        <ele>1637</ele>
        <time>2025-06-19T14:29:31Z</time>
      </trkpt>
      <trkpt lat="45.75998" lon="6.52974">
        <ele>1638</ele>
        <time>2025-06-19T14:29:32Z</time>
      </trkpt>
      <trkpt lat="45.75995" lon="6.52976">
        <ele>1638</ele>
        <time>2025-06-19T14:29:33Z</time>
      </trkpt>
      <trkpt lat="45.75989" lon="6.52973">
        <ele>1638</ele>
        <time>2025-06-19T14:29:34Z</time>
      </trkpt>
      <trkpt lat="45.75984" lon="6.52972">
        <ele>1638</ele>
        <time>2025-06-19T14:29:35Z</time>
      </trkpt>
      <trkpt lat="45.75978" lon="6.52974">
        <ele>1638</ele>
        <time>2025-06-19T14:29:37Z</time>
      </trkpt>
      <trkpt lat="45.75969" lon="6.52972">
        <ele>1638</ele>
        <time>2025-06-19T14:29:39Z</time>
      </trkpt>
      <trkpt lat="45.75956" lon="6.52966">
        <ele>1638</ele>
        <time>2025-06-19T14:29:42Z</time>
      </trkpt>
      <trkpt lat="45.75945" lon="6.52956">
        <ele>1637</ele>
        <time>2025-06-19T14:29:45Z</time>
      </trkpt>
      <trkpt lat="45.7594" lon="6.52955">
        <ele>1637</ele>
        <time>2025-06-19T14:29:46Z</time>
      </trkpt>
      <trkpt lat="45.75933" lon="6.52959">
        <ele>1638</ele>
        <time>2025-06-19T14:29:48Z</time>
      </trkpt>
      <trkpt lat="45.75923" lon="6.52954">
        <ele>1638</ele>
        <time>2025-06-19T14:29:50Z</time>
      </trkpt>
      <trkpt lat="45.75918" lon="6.52954">
        <ele>1638</ele>
        <time>2025-06-19T14:29:52Z</time>
      </trkpt>
      <trkpt lat="45.75917" lon="6.52955">
        <ele>1638</ele>
        <time>2025-06-19T14:29:52Z</time>
      </trkpt>
      <trkpt lat="45.7591" lon="6.52961">
        <ele>1639</ele>
        <time>2025-06-19T14:29:54Z</time>
      </trkpt>
      <trkpt lat="45.75899" lon="6.52961">
        <ele>1638</ele>
        <time>2025-06-19T14:29:56Z</time>
      </trkpt>
      <trkpt lat="45.75895" lon="6.52964">
        <ele>1638</ele>
        <time>2025-06-19T14:29:57Z</time>
      </trkpt>
      <trkpt lat="45.75889" lon="6.52969">
        <ele>1639</ele>
        <time>2025-06-19T14:29:59Z</time>
      </trkpt>
      <trkpt lat="45.75878" lon="6.52972">
        <ele>1638</ele>
        <time>2025-06-19T14:30:02Z</time>
      </trkpt>
      <trkpt lat="45.75876" lon="6.52975">
        <ele>1639</ele>
        <time>2025-06-19T14:30:02Z</time>
      </trkpt>
      <trkpt lat="45.75877" lon="6.5298">
        <ele>1639</ele>
        <time>2025-06-19T14:30:03Z</time>
      </trkpt>
      <trkpt lat="45.75879" lon="6.52981">
        <ele>1639</ele>
        <time>2025-06-19T14:30:04Z</time>
      </trkpt>
      <trkpt lat="45.75881" lon="6.52981">
        <ele>1639</ele>
        <time>2025-06-19T14:30:04Z</time>
      </trkpt>
      <trkpt lat="45.75886" lon="6.52977">
        <ele>1639</ele>
        <time>2025-06-19T14:30:05Z</time>
      </trkpt>
      <trkpt lat="45.75889" lon="6.52976">
        <ele>1639</ele>
        <time>2025-06-19T14:30:06Z</time>
      </trkpt>
      <trkpt lat="45.75896" lon="6.52979">
        <ele>1639</ele>
        <time>2025-06-19T14:30:08Z</time>
      </trkpt>
      <trkpt lat="45.75897" lon="6.52981">
        <ele>1640</ele>
        <time>2025-06-19T14:30:08Z</time>
      </trkpt>
      <trkpt lat="45.75898" lon="6.52986">
        <ele>1640</ele>
        <time>2025-06-19T14:30:09Z</time>
      </trkpt>
      <trkpt lat="45.75893" lon="6.52992">
        <ele>1640</ele>
        <time>2025-06-19T14:30:11Z</time>
      </trkpt>
      <trkpt lat="45.75891" lon="6.52996">
        <ele>1640</ele>
        <time>2025-06-19T14:30:11Z</time>
      </trkpt>
      <trkpt lat="45.75892" lon="6.52999">
        <ele>1641</ele>
        <time>2025-06-19T14:30:12Z</time>
      </trkpt>
      <trkpt lat="45.75893" lon="6.53001">
        <ele>1641</ele>
        <time>2025-06-19T14:30:12Z</time>
      </trkpt>
      <trkpt lat="45.75896" lon="6.53008">
        <ele>1642</ele>
        <time>2025-06-19T14:30:14Z</time>
      </trkpt>
      <trkpt lat="45.75895" lon="6.53014">
        <ele>1642</ele>
        <time>2025-06-19T14:30:15Z</time>
      </trkpt>
      <trkpt lat="45.75891" lon="6.53021">
        <ele>1642</ele>
        <time>2025-06-19T14:30:16Z</time>
      </trkpt>
      <trkpt lat="45.75875" lon="6.53043">
        <ele>1643</ele>
        <time>2025-06-19T14:30:21Z</time>
      </trkpt>
      <trkpt lat="45.75874" lon="6.53045">
        <ele>1643</ele>
        <time>2025-06-19T14:30:22Z</time>
      </trkpt>
      <trkpt lat="45.75872" lon="6.53055">
        <ele>1644</ele>
        <time>2025-06-19T14:30:23Z</time>
      </trkpt>
      <trkpt lat="45.7587" lon="6.53058">
        <ele>1644</ele>
        <time>2025-06-19T14:30:24Z</time>
      </trkpt>
      <trkpt lat="45.75867" lon="6.53059">
        <ele>1644</ele>
        <time>2025-06-19T14:30:25Z</time>
      </trkpt>
      <trkpt lat="45.75861" lon="6.53054">
        <ele>1643</ele>
        <time>2025-06-19T14:30:27Z</time>
      </trkpt>
      <trkpt lat="45.75848" lon="6.53055">
        <ele>1643</ele>
        <time>2025-06-19T14:30:30Z</time>
      </trkpt>
      <trkpt lat="45.75844" lon="6.5306">
        <ele>1643</ele>
        <time>2025-06-19T14:30:31Z</time>
      </trkpt>
      <trkpt lat="45.75839" lon="6.53075">
        <ele>1644</ele>
        <time>2025-06-19T14:30:33Z</time>
      </trkpt>
      <trkpt lat="45.75838" lon="6.53079">
        <ele>1645</ele>
        <time>2025-06-19T14:30:34Z</time>
      </trkpt>
      <trkpt lat="45.7584" lon="6.53082">
        <ele>1645</ele>
        <time>2025-06-19T14:30:35Z</time>
      </trkpt>
      <trkpt lat="45.75843" lon="6.53082">
        <ele>1645</ele>
        <time>2025-06-19T14:30:36Z</time>
      </trkpt>
      <trkpt lat="45.75844" lon="6.53082">
        <ele>1645</ele>
        <time>2025-06-19T14:30:36Z</time>
      </trkpt>
      <trkpt lat="45.75851" lon="6.53068">
        <ele>1644</ele>
        <time>2025-06-19T14:30:39Z</time>
      </trkpt>
      <trkpt lat="45.75858" lon="6.53066">
        <ele>1644</ele>
        <time>2025-06-19T14:30:40Z</time>
      </trkpt>
      <trkpt lat="45.75865" lon="6.53068">
        <ele>1645</ele>
        <time>2025-06-19T14:30:42Z</time>
      </trkpt>
      <trkpt lat="45.75869" lon="6.53071">
        <ele>1645</ele>
        <time>2025-06-19T14:30:43Z</time>
      </trkpt>
      <trkpt lat="45.75885" lon="6.53083">
        <ele>1646</ele>
        <time>2025-06-19T14:30:47Z</time>
      </trkpt>
      <trkpt lat="45.75888" lon="6.53082">
        <ele>1646</ele>
        <time>2025-06-19T14:30:48Z</time>
      </trkpt>
      <trkpt lat="45.75894" lon="6.53075">
        <ele>1646</ele>
        <time>2025-06-19T14:30:50Z</time>
      </trkpt>
      <trkpt lat="45.75898" lon="6.53074">
        <ele>1646</ele>
        <time>2025-06-19T14:30:51Z</time>
      </trkpt>
      <trkpt lat="45.75901" lon="6.53074">
        <ele>1646</ele>
        <time>2025-06-19T14:30:51Z</time>
      </trkpt>
      <trkpt lat="45.75903" lon="6.53075">
        <ele>1646</ele>
        <time>2025-06-19T14:30:52Z</time>
      </trkpt>
      <trkpt lat="45.75908" lon="6.53081">
        <ele>1647</ele>
        <time>2025-06-19T14:30:53Z</time>
      </trkpt>
      <trkpt lat="45.75911" lon="6.53082">
        <ele>1647</ele>
        <time>2025-06-19T14:30:54Z</time>
      </trkpt>
      <trkpt lat="45.75916" lon="6.5308">
        <ele>1647</ele>
        <time>2025-06-19T14:30:55Z</time>
      </trkpt>
      <trkpt lat="45.75918" lon="6.53081">
        <ele>1647</ele>
        <time>2025-06-19T14:30:56Z</time>
      </trkpt>
      <trkpt lat="45.75919" lon="6.53083">
        <ele>1647</ele>
        <time>2025-06-19T14:30:56Z</time>
      </trkpt>
      <trkpt lat="45.75919" lon="6.53086">
        <ele>1647</ele>
        <time>2025-06-19T14:30:57Z</time>
      </trkpt>
      <trkpt lat="45.75918" lon="6.53089">
        <ele>1647</ele>
        <time>2025-06-19T14:30:57Z</time>
      </trkpt>
      <trkpt lat="45.75913" lon="6.53091">
        <ele>1647</ele>
        <time>2025-06-19T14:30:58Z</time>
      </trkpt>
      <trkpt lat="45.75903" lon="6.53093">
        <ele>1647</ele>
        <time>2025-06-19T14:31:01Z</time>
      </trkpt>
      <trkpt lat="45.75889" lon="6.53099">
        <ele>1647</ele>
        <time>2025-06-19T14:31:04Z</time>
      </trkpt>
      <trkpt lat="45.75885" lon="6.53099">
        <ele>1647</ele>
        <time>2025-06-19T14:31:05Z</time>
      </trkpt>
      <trkpt lat="45.75878" lon="6.53092">
        <ele>1647</ele>
        <time>2025-06-19T14:31:07Z</time>
      </trkpt>
      <trkpt lat="45.75875" lon="6.53091">
        <ele>1647</ele>
        <time>2025-06-19T14:31:08Z</time>
      </trkpt>
      <trkpt lat="45.75873" lon="6.53092">
        <ele>1647</ele>
        <time>2025-06-19T14:31:08Z</time>
      </trkpt>
      <trkpt lat="45.75865" lon="6.531">
        <ele>1647</ele>
        <time>2025-06-19T14:31:11Z</time>
      </trkpt>
      <trkpt lat="45.75865" lon="6.53102">
        <ele>1647</ele>
        <time>2025-06-19T14:31:11Z</time>
      </trkpt>
      <trkpt lat="45.75864" lon="6.53105">
        <ele>1647</ele>
        <time>2025-06-19T14:31:12Z</time>
      </trkpt>
      <trkpt lat="45.75864" lon="6.53109">
        <ele>1647</ele>
        <time>2025-06-19T14:31:12Z</time>
      </trkpt>
      <trkpt lat="45.75866" lon="6.53114">
        <ele>1648</ele>
        <time>2025-06-19T14:31:13Z</time>
      </trkpt>
      <trkpt lat="45.7587" lon="6.53115">
        <ele>1648</ele>
        <time>2025-06-19T14:31:14Z</time>
      </trkpt>
      <trkpt lat="45.75876" lon="6.53108">
        <ele>1648</ele>
        <time>2025-06-19T14:31:16Z</time>
      </trkpt>
      <trkpt lat="45.75879" lon="6.53108">
        <ele>1648</ele>
        <time>2025-06-19T14:31:17Z</time>
      </trkpt>
      <trkpt lat="45.75884" lon="6.53121">
        <ele>1649</ele>
        <time>2025-06-19T14:31:19Z</time>
      </trkpt>
      <trkpt lat="45.75891" lon="6.53137">
        <ele>1650</ele>
        <time>2025-06-19T14:31:22Z</time>
      </trkpt>
      <trkpt lat="45.75895" lon="6.53142">
        <ele>1650</ele>
        <time>2025-06-19T14:31:23Z</time>
      </trkpt>
      <trkpt lat="45.759" lon="6.53142">
        <ele>1650</ele>
        <time>2025-06-19T14:31:24Z</time>
      </trkpt>
      <trkpt lat="45.75906" lon="6.53137">
        <ele>1650</ele>
        <time>2025-06-19T14:31:26Z</time>
      </trkpt>
      <trkpt lat="45.75915" lon="6.53136">
        <ele>1650</ele>
        <time>2025-06-19T14:31:28Z</time>
      </trkpt>
      <trkpt lat="45.7592" lon="6.53133">
        <ele>1650</ele>
        <time>2025-06-19T14:31:29Z</time>
      </trkpt>
      <trkpt lat="45.75922" lon="6.53131">
        <ele>1650</ele>
        <time>2025-06-19T14:31:30Z</time>
      </trkpt>
      <trkpt lat="45.75927" lon="6.53128">
        <ele>1650</ele>
        <time>2025-06-19T14:31:31Z</time>
      </trkpt>
      <trkpt lat="45.75928" lon="6.53129">
        <ele>1650</ele>
        <time>2025-06-19T14:31:32Z</time>
      </trkpt>
      <trkpt lat="45.75932" lon="6.53132">
        <ele>1650</ele>
        <time>2025-06-19T14:31:33Z</time>
      </trkpt>
      <trkpt lat="45.75936" lon="6.53138">
        <ele>1651</ele>
        <time>2025-06-19T14:31:34Z</time>
      </trkpt>
      <trkpt lat="45.75939" lon="6.53143">
        <ele>1651</ele>
        <time>2025-06-19T14:31:35Z</time>
      </trkpt>
      <trkpt lat="45.75943" lon="6.53145">
        <ele>1651</ele>
        <time>2025-06-19T14:31:36Z</time>
      </trkpt>
      <trkpt lat="45.75957" lon="6.53143">
        <ele>1651</ele>
        <time>2025-06-19T14:31:39Z</time>
      </trkpt>
      <trkpt lat="45.75963" lon="6.53143">
        <ele>1651</ele>
        <time>2025-06-19T14:31:41Z</time>
      </trkpt>
      <trkpt lat="45.75974" lon="6.53149">
        <ele>1652</ele>
        <time>2025-06-19T14:31:43Z</time>
      </trkpt>
      <trkpt lat="45.75977" lon="6.53151">
        <ele>1652</ele>
        <time>2025-06-19T14:31:44Z</time>
      </trkpt>
      <trkpt lat="45.75979" lon="6.53153">
        <ele>1652</ele>
        <time>2025-06-19T14:31:45Z</time>
      </trkpt>
      <trkpt lat="45.75984" lon="6.53165">
        <ele>1653</ele>
        <time>2025-06-19T14:31:47Z</time>
      </trkpt>
      <trkpt lat="45.76002" lon="6.53186">
        <ele>1653</ele>
        <time>2025-06-19T14:31:53Z</time>
      </trkpt>
      <trkpt lat="45.7601" lon="6.53194">
        <ele>1653</ele>
        <time>2025-06-19T14:31:55Z</time>
      </trkpt>
      <trkpt lat="45.76015" lon="6.53203">
        <ele>1653</ele>
        <time>2025-06-19T14:31:57Z</time>
      </trkpt>
      <trkpt lat="45.76018" lon="6.53208">
        <ele>1653</ele>
        <time>2025-06-19T14:31:58Z</time>
      </trkpt>
      <trkpt lat="45.7602" lon="6.53209">
        <ele>1653</ele>
        <time>2025-06-19T14:31:58Z</time>
      </trkpt>
      <trkpt lat="45.76028" lon="6.53211">
        <ele>1653</ele>
        <time>2025-06-19T14:32:00Z</time>
      </trkpt>
      <trkpt lat="45.76036" lon="6.53217">
        <ele>1653</ele>
        <time>2025-06-19T14:32:02Z</time>
      </trkpt>
      <trkpt lat="45.76044" lon="6.53218">
        <ele>1653</ele>
        <time>2025-06-19T14:32:04Z</time>
      </trkpt>
      <trkpt lat="45.76054" lon="6.53228">
        <ele>1653</ele>
        <time>2025-06-19T14:32:07Z</time>
      </trkpt>
      <trkpt lat="45.76055" lon="6.53233">
        <ele>1654</ele>
        <time>2025-06-19T14:32:08Z</time>
      </trkpt>
      <trkpt lat="45.76065" lon="6.53243">
        <ele>1654</ele>
        <time>2025-06-19T14:32:11Z</time>
      </trkpt>
      <trkpt lat="45.76073" lon="6.5325">
        <ele>1654</ele>
        <time>2025-06-19T14:32:13Z</time>
      </trkpt>
      <trkpt lat="45.76079" lon="6.53259">
        <ele>1655</ele>
        <time>2025-06-19T14:32:15Z</time>
      </trkpt>
      <trkpt lat="45.76082" lon="6.5327">
        <ele>1655</ele>
        <time>2025-06-19T14:32:17Z</time>
      </trkpt>
      <trkpt lat="45.76085" lon="6.5329">
        <ele>1656</ele>
        <time>2025-06-19T14:32:20Z</time>
      </trkpt>
      <trkpt lat="45.7605" lon="6.53297">
        <ele>1657</ele>
        <time>2025-06-19T14:32:28Z</time>
      </trkpt>
      <trkpt lat="45.76025" lon="6.53303">
        <ele>1657</ele>
        <time>2025-06-19T14:32:34Z</time>
      </trkpt>
      <trkpt lat="45.76029" lon="6.53332">
        <ele>1658</ele>
        <time>2025-06-19T14:32:39Z</time>
      </trkpt>
      <trkpt lat="45.76032" lon="6.5335">
        <ele>1659</ele>
        <time>2025-06-19T14:32:42Z</time>
      </trkpt>
      <trkpt lat="45.76032" lon="6.53359">
        <ele>1660</ele>
        <time>2025-06-19T14:32:44Z</time>
      </trkpt>
      <trkpt lat="45.76015" lon="6.53367">
        <ele>1660</ele>
        <time>2025-06-19T14:32:48Z</time>
      </trkpt>
      <trkpt lat="45.75961" lon="6.53282">
        <ele>1656</ele>
        <time>2025-06-19T14:33:07Z</time>
      </trkpt>
      <trkpt lat="45.75939" lon="6.5322">
        <ele>1655</ele>
        <time>2025-06-19T14:33:18Z</time>
      </trkpt>
      <trkpt lat="45.75913" lon="6.53183">
        <ele>1653</ele>
        <time>2025-06-19T14:33:26Z</time>
      </trkpt>
      <trkpt lat="45.75882" lon="6.53159">
        <ele>1651</ele>
        <time>2025-06-19T14:33:35Z</time>
      </trkpt>
      <trkpt lat="45.7588" lon="6.53156">
        <ele>1651</ele>
        <time>2025-06-19T14:33:35Z</time>
      </trkpt>
      <trkpt lat="45.75872" lon="6.53157">
        <ele>1651</ele>
        <time>2025-06-19T14:33:37Z</time>
      </trkpt>
      <trkpt lat="45.75864" lon="6.53162">
        <ele>1651</ele>
        <time>2025-06-19T14:33:39Z</time>
      </trkpt>
      <trkpt lat="45.75863" lon="6.53164">
        <ele>1651</ele>
        <time>2025-06-19T14:33:40Z</time>
      </trkpt>
      <trkpt lat="45.75821" lon="6.5307">
        <ele>1643</ele>
        <time>2025-06-19T14:33:58Z</time>
      </trkpt>
      <trkpt lat="45.75831" lon="6.53037">
        <ele>1641</ele>
        <time>2025-06-19T14:34:04Z</time>
      </trkpt>
      <trkpt lat="45.75833" lon="6.52942">
        <ele>1636</ele>
        <time>2025-06-19T14:34:19Z</time>
      </trkpt>
      <trkpt lat="45.7584" lon="6.52882">
        <ele>1634</ele>
        <time>2025-06-19T14:34:29Z</time>
      </trkpt>
      <trkpt lat="45.75828" lon="6.52839">
        <ele>1633</ele>
        <time>2025-06-19T14:34:37Z</time>
      </trkpt>
      <trkpt lat="45.75823" lon="6.52694">
        <ele>1639</ele>
        <time>2025-06-19T14:35:00Z</time>
      </trkpt>
      <trkpt lat="45.75829" lon="6.52661">
        <ele>1641</ele>
        <time>2025-06-19T14:35:06Z</time>
      </trkpt>
      <trkpt lat="45.75834" lon="6.52645">
        <ele>1642</ele>
        <time>2025-06-19T14:35:09Z</time>
      </trkpt>
      <trkpt lat="45.75836" lon="6.52637">
        <ele>1643</ele>
        <time>2025-06-19T14:35:10Z</time>
      </trkpt>
      <trkpt lat="45.7584" lon="6.52599">
        <ele>1647</ele>
        <time>2025-06-19T14:35:16Z</time>
      </trkpt>
      <trkpt lat="45.75846" lon="6.52554">
        <ele>1649</ele>
        <time>2025-06-19T14:35:24Z</time>
      </trkpt>
      <trkpt lat="45.7585" lon="6.52506">
        <ele>1650</ele>
        <time>2025-06-19T14:35:32Z</time>
      </trkpt>
      <trkpt lat="45.75851" lon="6.52473">
        <ele>1650</ele>
        <time>2025-06-19T14:35:37Z</time>
      </trkpt>
      <trkpt lat="45.75846" lon="6.52437">
        <ele>1650</ele>
        <time>2025-06-19T14:35:43Z</time>
      </trkpt>
      <trkpt lat="45.75832" lon="6.5237">
        <ele>1652</ele>
        <time>2025-06-19T14:35:54Z</time>
      </trkpt>
      <trkpt lat="45.75816" lon="6.5232">
        <ele>1654</ele>
        <time>2025-06-19T14:36:03Z</time>
      </trkpt>
      <trkpt lat="45.75804" lon="6.52304">
        <ele>1655</ele>
        <time>2025-06-19T14:36:07Z</time>
      </trkpt>
      <trkpt lat="45.75792" lon="6.5228">
        <ele>1656</ele>
        <time>2025-06-19T14:36:12Z</time>
      </trkpt>
      <trkpt lat="45.75777" lon="6.52234">
        <ele>1658</ele>
        <time>2025-06-19T14:36:20Z</time>
      </trkpt>
      <trkpt lat="45.75785" lon="6.52179">
        <ele>1660</ele>
        <time>2025-06-19T14:36:29Z</time>
      </trkpt>
      <trkpt lat="45.75806" lon="6.52137">
        <ele>1661</ele>
        <time>2025-06-19T14:36:38Z</time>
      </trkpt>
      <trkpt lat="45.75836" lon="6.52121">
        <ele>1657</ele>
        <time>2025-06-19T14:36:45Z</time>
      </trkpt>
      <trkpt lat="45.75883" lon="6.52082">
        <ele>1659</ele>
        <time>2025-06-19T14:36:58Z</time>
      </trkpt>
      <trkpt lat="45.75907" lon="6.52068">
        <ele>1660</ele>
        <time>2025-06-19T14:37:04Z</time>
      </trkpt>
      <trkpt lat="45.75927" lon="6.5206">
        <ele>1661</ele>
        <time>2025-06-19T14:37:09Z</time>
      </trkpt>
      <trkpt lat="45.75949" lon="6.52055">
        <ele>1661</ele>
        <time>2025-06-19T14:37:14Z</time>
      </trkpt>
      <trkpt lat="45.75976" lon="6.52046">
        <ele>1662</ele>
        <time>2025-06-19T14:37:21Z</time>
      </trkpt>
      <trkpt lat="45.75991" lon="6.52041">
        <ele>1662</ele>
        <time>2025-06-19T14:37:24Z</time>
      </trkpt>
      <trkpt lat="45.76018" lon="6.52034">
        <ele>1663</ele>
        <time>2025-06-19T14:37:31Z</time>
      </trkpt>
      <trkpt lat="45.7606" lon="6.52019">
        <ele>1665</ele>
        <time>2025-06-19T14:37:41Z</time>
      </trkpt>
      <trkpt lat="45.76071" lon="6.52011">
        <ele>1665</ele>
        <time>2025-06-19T14:37:44Z</time>
      </trkpt>
      <trkpt lat="45.76088" lon="6.51991">
        <ele>1667</ele>
        <time>2025-06-19T14:37:49Z</time>
      </trkpt>
      <trkpt lat="45.76098" lon="6.51967">
        <ele>1669</ele>
        <time>2025-06-19T14:37:53Z</time>
      </trkpt>
      <trkpt lat="45.76108" lon="6.51949">
        <ele>1669</ele>
        <time>2025-06-19T14:37:57Z</time>
      </trkpt>
      <trkpt lat="45.76117" lon="6.51921">
        <ele>1671</ele>
        <time>2025-06-19T14:38:02Z</time>
      </trkpt>
      <trkpt lat="45.76142" lon="6.51773">
        <ele>1683</ele>
        <time>2025-06-19T14:38:27Z</time>
      </trkpt>
      <trkpt lat="45.7615" lon="6.51741">
        <ele>1685</ele>
        <time>2025-06-19T14:38:32Z</time>
      </trkpt>
      <trkpt lat="45.76166" lon="6.51719">
        <ele>1685</ele>
        <time>2025-06-19T14:38:38Z</time>
      </trkpt>
      <trkpt lat="45.76177" lon="6.51708">
        <ele>1686</ele>
        <time>2025-06-19T14:38:41Z</time>
      </trkpt>
      <trkpt lat="45.76198" lon="6.51693">
        <ele>1686</ele>
        <time>2025-06-19T14:38:46Z</time>
      </trkpt>
      <trkpt lat="45.7621" lon="6.51674">
        <ele>1687</ele>
        <time>2025-06-19T14:38:50Z</time>
      </trkpt>
      <trkpt lat="45.76219" lon="6.51646">
        <ele>1688</ele>
        <time>2025-06-19T14:38:55Z</time>
      </trkpt>
      <trkpt lat="45.76225" lon="6.5162">
        <ele>1689</ele>
        <time>2025-06-19T14:39:00Z</time>
      </trkpt>
      <trkpt lat="45.76225" lon="6.51597">
        <ele>1690</ele>
        <time>2025-06-19T14:39:04Z</time>
      </trkpt>
      <trkpt lat="45.76224" lon="6.51584">
        <ele>1691</ele>
        <time>2025-06-19T14:39:06Z</time>
      </trkpt>
      <trkpt lat="45.76219" lon="6.51564">
        <ele>1693</ele>
        <time>2025-06-19T14:39:09Z</time>
      </trkpt>
      <trkpt lat="45.76216" lon="6.51536">
        <ele>1695</ele>
        <time>2025-06-19T14:39:14Z</time>
      </trkpt>
      <trkpt lat="45.76217" lon="6.51509">
        <ele>1698</ele>
        <time>2025-06-19T14:39:18Z</time>
      </trkpt>
      <trkpt lat="45.76221" lon="6.5148">
        <ele>1700</ele>
        <time>2025-06-19T14:39:23Z</time>
      </trkpt>
      <trkpt lat="45.76222" lon="6.51475">
        <ele>1701</ele>
        <time>2025-06-19T14:39:24Z</time>
      </trkpt>
      <trkpt lat="45.76221" lon="6.51463">
        <ele>1702</ele>
        <time>2025-06-19T14:39:26Z</time>
      </trkpt>
      <trkpt lat="45.7622" lon="6.51456">
        <ele>1703</ele>
        <time>2025-06-19T14:39:27Z</time>
      </trkpt>
      <trkpt lat="45.76236" lon="6.51424">
        <ele>1705</ele>
        <time>2025-06-19T14:39:33Z</time>
      </trkpt>
      <trkpt lat="45.76245" lon="6.51408">
        <ele>1706</ele>
        <time>2025-06-19T14:39:37Z</time>
      </trkpt>
      <trkpt lat="45.76255" lon="6.51392">
        <ele>1707</ele>
        <time>2025-06-19T14:39:40Z</time>
      </trkpt>
      <trkpt lat="45.76273" lon="6.51366">
        <ele>1708</ele>
        <time>2025-06-19T14:39:46Z</time>
      </trkpt>
      <trkpt lat="45.76279" lon="6.51328">
        <ele>1709</ele>
        <time>2025-06-19T14:39:53Z</time>
      </trkpt>
      <trkpt lat="45.76286" lon="6.51311">
        <ele>1710</ele>
        <time>2025-06-19T14:39:56Z</time>
      </trkpt>
      <trkpt lat="45.76293" lon="6.51295">
        <ele>1710</ele>
        <time>2025-06-19T14:39:59Z</time>
      </trkpt>
      <trkpt lat="45.763" lon="6.51284">
        <ele>1710</ele>
        <time>2025-06-19T14:40:01Z</time>
      </trkpt>
      <trkpt lat="45.76304" lon="6.51266">
        <ele>1711</ele>
        <time>2025-06-19T14:40:04Z</time>
      </trkpt>
      <trkpt lat="45.7631" lon="6.51255">
        <ele>1711</ele>
        <time>2025-06-19T14:40:07Z</time>
      </trkpt>
      <trkpt lat="45.76334" lon="6.51239">
        <ele>1710</ele>
        <time>2025-06-19T14:40:13Z</time>
      </trkpt>
      <trkpt lat="45.76346" lon="6.51223">
        <ele>1712</ele>
        <time>2025-06-19T14:40:17Z</time>
      </trkpt>
      <trkpt lat="45.76361" lon="6.51209">
        <ele>1714</ele>
        <time>2025-06-19T14:40:21Z</time>
      </trkpt>
      <trkpt lat="45.76383" lon="6.51167">
        <ele>1718</ele>
        <time>2025-06-19T14:40:29Z</time>
      </trkpt>
      <trkpt lat="45.76388" lon="6.51152">
        <ele>1718</ele>
        <time>2025-06-19T14:40:32Z</time>
      </trkpt>
      <trkpt lat="45.76385" lon="6.51131">
        <ele>1719</ele>
        <time>2025-06-19T14:40:36Z</time>
      </trkpt>
      <trkpt lat="45.76368" lon="6.5109">
        <ele>1719</ele>
        <time>2025-06-19T14:40:43Z</time>
      </trkpt>
      <trkpt lat="45.76372" lon="6.51068">
        <ele>1719</ele>
        <time>2025-06-19T14:40:47Z</time>
      </trkpt>
      <trkpt lat="45.76376" lon="6.51052">
        <ele>1719</ele>
        <time>2025-06-19T14:40:50Z</time>
      </trkpt>
      <trkpt lat="45.76353" lon="6.51059">
        <ele>1718</ele>
        <time>2025-06-19T14:40:55Z</time>
      </trkpt>
      <trkpt lat="45.76342" lon="6.51052">
        <ele>1717</ele>
        <time>2025-06-19T14:40:58Z</time>
      </trkpt>
      <trkpt lat="45.76318" lon="6.51031">
        <ele>1717</ele>
        <time>2025-06-19T14:41:05Z</time>
      </trkpt>
      <trkpt lat="45.76295" lon="6.51025">
        <ele>1717</ele>
        <time>2025-06-19T14:41:10Z</time>
      </trkpt>
      <trkpt lat="45.76271" lon="6.51018">
        <ele>1718</ele>
        <time>2025-06-19T14:41:16Z</time>
      </trkpt>
      <trkpt lat="45.76241" lon="6.51005">
        <ele>1718</ele>
        <time>2025-06-19T14:41:23Z</time>
      </trkpt>
      <trkpt lat="45.76156" lon="6.50978">
        <ele>1726</ele>
        <time>2025-06-19T14:41:44Z</time>
      </trkpt>
      <trkpt lat="45.76151" lon="6.50971">
        <ele>1726</ele>
        <time>2025-06-19T14:41:45Z</time>
      </trkpt>
      <trkpt lat="45.76137" lon="6.50946">
        <ele>1725</ele>
        <time>2025-06-19T14:41:50Z</time>
      </trkpt>
      <trkpt lat="45.76128" lon="6.50932">
        <ele>1725</ele>
        <time>2025-06-19T14:41:54Z</time>
      </trkpt>
      <trkpt lat="45.76107" lon="6.50913">
        <ele>1725</ele>
        <time>2025-06-19T14:41:59Z</time>
      </trkpt>
      <trkpt lat="45.76094" lon="6.50899">
        <ele>1725</ele>
        <time>2025-06-19T14:42:03Z</time>
      </trkpt>
      <trkpt lat="45.76087" lon="6.50887">
        <ele>1725</ele>
        <time>2025-06-19T14:42:06Z</time>
      </trkpt>
      <trkpt lat="45.76079" lon="6.50871">
        <ele>1726</ele>
        <time>2025-06-19T14:42:09Z</time>
      </trkpt>
      <trkpt lat="45.76075" lon="6.5086">
        <ele>1726</ele>
        <time>2025-06-19T14:42:11Z</time>
      </trkpt>
      <trkpt lat="45.76071" lon="6.50846">
        <ele>1726</ele>
        <time>2025-06-19T14:42:13Z</time>
      </trkpt>
      <trkpt lat="45.76068" lon="6.50807">
        <ele>1724</ele>
        <time>2025-06-19T14:42:20Z</time>
      </trkpt>
      <trkpt lat="45.76065" lon="6.50793">
        <ele>1723</ele>
        <time>2025-06-19T14:42:22Z</time>
      </trkpt>
      <trkpt lat="45.76061" lon="6.50781">
        <ele>1722</ele>
        <time>2025-06-19T14:42:24Z</time>
      </trkpt>
      <trkpt lat="45.76043" lon="6.5076">
        <ele>1722</ele>
        <time>2025-06-19T14:42:30Z</time>
      </trkpt>
      <trkpt lat="45.76021" lon="6.50743">
        <ele>1722</ele>
        <time>2025-06-19T14:42:36Z</time>
      </trkpt>
      <trkpt lat="45.76002" lon="6.50748">
        <ele>1724</ele>
        <time>2025-06-19T14:42:40Z</time>
      </trkpt>
      <trkpt lat="45.75988" lon="6.50757">
        <ele>1725</ele>
        <time>2025-06-19T14:42:44Z</time>
      </trkpt>
      <trkpt lat="45.75979" lon="6.50762">
        <ele>1725</ele>
        <time>2025-06-19T14:42:46Z</time>
      </trkpt>
      <trkpt lat="45.75968" lon="6.5076">
        <ele>1724</ele>
        <time>2025-06-19T14:42:48Z</time>
      </trkpt>
      <trkpt lat="45.75954" lon="6.50752">
        <ele>1722</ele>
        <time>2025-06-19T14:42:52Z</time>
      </trkpt>
      <trkpt lat="45.75945" lon="6.50746">
        <ele>1720</ele>
        <time>2025-06-19T14:42:54Z</time>
      </trkpt>
      <trkpt lat="45.75939" lon="6.50744">
        <ele>1720</ele>
        <time>2025-06-19T14:42:56Z</time>
      </trkpt>
      <trkpt lat="45.75934" lon="6.50747">
        <ele>1720</ele>
        <time>2025-06-19T14:42:57Z</time>
      </trkpt>
      <trkpt lat="45.75917" lon="6.50766">
        <ele>1721</ele>
        <time>2025-06-19T14:43:02Z</time>
      </trkpt>
      <trkpt lat="45.75908" lon="6.50774">
        <ele>1721</ele>
        <time>2025-06-19T14:43:05Z</time>
      </trkpt>
      <trkpt lat="45.75902" lon="6.50781">
        <ele>1722</ele>
        <time>2025-06-19T14:43:06Z</time>
      </trkpt>
      <trkpt lat="45.75883" lon="6.50799">
        <ele>1722</ele>
        <time>2025-06-19T14:43:12Z</time>
      </trkpt>
      <trkpt lat="45.75864" lon="6.50812">
        <ele>1722</ele>
        <time>2025-06-19T14:43:17Z</time>
      </trkpt>
      <trkpt lat="45.75848" lon="6.5082">
        <ele>1721</ele>
        <time>2025-06-19T14:43:21Z</time>
      </trkpt>
      <trkpt lat="45.75841" lon="6.50825">
        <ele>1720</ele>
        <time>2025-06-19T14:43:22Z</time>
      </trkpt>
      <trkpt lat="45.75831" lon="6.50829">
        <ele>1720</ele>
        <time>2025-06-19T14:43:25Z</time>
      </trkpt>
      <trkpt lat="45.75775" lon="6.50832">
        <ele>1726</ele>
        <time>2025-06-19T14:43:38Z</time>
      </trkpt>
      <trkpt lat="45.75765" lon="6.50831">
        <ele>1727</ele>
        <time>2025-06-19T14:43:40Z</time>
      </trkpt>
      <trkpt lat="45.75755" lon="6.50823">
        <ele>1728</ele>
        <time>2025-06-19T14:43:43Z</time>
      </trkpt>
      <trkpt lat="45.75745" lon="6.50817">
        <ele>1729</ele>
        <time>2025-06-19T14:43:45Z</time>
      </trkpt>
      <trkpt lat="45.75735" lon="6.50813">
        <ele>1730</ele>
        <time>2025-06-19T14:43:48Z</time>
      </trkpt>
      <trkpt lat="45.75729" lon="6.50813">
        <ele>1731</ele>
        <time>2025-06-19T14:43:49Z</time>
      </trkpt>
      <trkpt lat="45.75717" lon="6.50815">
        <ele>1733</ele>
        <time>2025-06-19T14:43:52Z</time>
      </trkpt>
      <trkpt lat="45.75714" lon="6.50819">
        <ele>1733</ele>
        <time>2025-06-19T14:43:53Z</time>
      </trkpt>
      <trkpt lat="45.75711" lon="6.50825">
        <ele>1734</ele>
        <time>2025-06-19T14:43:54Z</time>
      </trkpt>
      <trkpt lat="45.7571" lon="6.50832">
        <ele>1734</ele>
        <time>2025-06-19T14:43:55Z</time>
      </trkpt>
      <trkpt lat="45.75711" lon="6.50845">
        <ele>1734</ele>
        <time>2025-06-19T14:43:58Z</time>
      </trkpt>
      <trkpt lat="45.75715" lon="6.50853">
        <ele>1734</ele>
        <time>2025-06-19T14:43:59Z</time>
      </trkpt>
      <trkpt lat="45.7571" lon="6.50859">
        <ele>1735</ele>
        <time>2025-06-19T14:44:01Z</time>
      </trkpt>
      <trkpt lat="45.75704" lon="6.50858">
        <ele>1736</ele>
        <time>2025-06-19T14:44:02Z</time>
      </trkpt>
      <trkpt lat="45.7569" lon="6.50846">
        <ele>1737</ele>
        <time>2025-06-19T14:44:06Z</time>
      </trkpt>
      <trkpt lat="45.75665" lon="6.50836">
        <ele>1740</ele>
        <time>2025-06-19T14:44:12Z</time>
      </trkpt>
      <trkpt lat="45.75651" lon="6.50829">
        <ele>1743</ele>
        <time>2025-06-19T14:44:15Z</time>
      </trkpt>
      <trkpt lat="45.75633" lon="6.50817">
        <ele>1745</ele>
        <time>2025-06-19T14:44:20Z</time>
      </trkpt>
      <trkpt lat="45.75608" lon="6.50787">
        <ele>1747</ele>
        <time>2025-06-19T14:44:28Z</time>
      </trkpt>
      <trkpt lat="45.75588" lon="6.50775">
        <ele>1749</ele>
        <time>2025-06-19T14:44:33Z</time>
      </trkpt>
      <trkpt lat="45.75552" lon="6.50759">
        <ele>1752</ele>
        <time>2025-06-19T14:44:42Z</time>
      </trkpt>
      <trkpt lat="45.75511" lon="6.50734">
        <ele>1754</ele>
        <time>2025-06-19T14:44:52Z</time>
      </trkpt>
      <trkpt lat="45.75477" lon="6.50703">
        <ele>1756</ele>
        <time>2025-06-19T14:45:01Z</time>
      </trkpt>
      <trkpt lat="45.75468" lon="6.50702">
        <ele>1757</ele>
        <time>2025-06-19T14:45:03Z</time>
      </trkpt>
      <trkpt lat="45.75447" lon="6.50703">
        <ele>1760</ele>
        <time>2025-06-19T14:45:08Z</time>
      </trkpt>
      <trkpt lat="45.7543" lon="6.50701">
        <ele>1762</ele>
        <time>2025-06-19T14:45:12Z</time>
      </trkpt>
      <trkpt lat="45.75422" lon="6.50696">
        <ele>1763</ele>
        <time>2025-06-19T14:45:14Z</time>
      </trkpt>
      <trkpt lat="45.75407" lon="6.50679">
        <ele>1764</ele>
        <time>2025-06-19T14:45:19Z</time>
      </trkpt>
      <trkpt lat="45.754" lon="6.5067">
        <ele>1764</ele>
        <time>2025-06-19T14:45:21Z</time>
      </trkpt>
      <trkpt lat="45.75393" lon="6.50673">
        <ele>1766</ele>
        <time>2025-06-19T14:45:23Z</time>
      </trkpt>
      <trkpt lat="45.75392" lon="6.50679">
        <ele>1767</ele>
        <time>2025-06-19T14:45:24Z</time>
      </trkpt>
      <trkpt lat="45.75399" lon="6.50716">
        <ele>1771</ele>
        <time>2025-06-19T14:45:30Z</time>
      </trkpt>
      <trkpt lat="45.75404" lon="6.50727">
        <ele>1771</ele>
        <time>2025-06-19T14:45:32Z</time>
      </trkpt>
      <trkpt lat="45.75406" lon="6.50739">
        <ele>1772</ele>
        <time>2025-06-19T14:45:34Z</time>
      </trkpt>
      <trkpt lat="45.75408" lon="6.50773">
        <ele>1774</ele>
        <time>2025-06-19T14:45:40Z</time>
      </trkpt>
      <trkpt lat="45.75409" lon="6.50785">
        <ele>1775</ele>
        <time>2025-06-19T14:45:42Z</time>
      </trkpt>
      <trkpt lat="45.75416" lon="6.50801">
        <ele>1773</ele>
        <time>2025-06-19T14:45:45Z</time>
      </trkpt>
      <trkpt lat="45.75421" lon="6.50807">
        <ele>1773</ele>
        <time>2025-06-19T14:45:46Z</time>
      </trkpt>
      <trkpt lat="45.75436" lon="6.50833">
        <ele>1773</ele>
        <time>2025-06-19T14:45:52Z</time>
      </trkpt>
      <trkpt lat="45.75455" lon="6.50874">
        <ele>1773</ele>
        <time>2025-06-19T14:46:00Z</time>
      </trkpt>
      <trkpt lat="45.75467" lon="6.50892">
        <ele>1773</ele>
        <time>2025-06-19T14:46:04Z</time>
      </trkpt>
      <trkpt lat="45.75467" lon="6.50896">
        <ele>1773</ele>
        <time>2025-06-19T14:46:04Z</time>
      </trkpt>
      <trkpt lat="45.75468" lon="6.50903">
        <ele>1773</ele>
        <time>2025-06-19T14:46:06Z</time>
      </trkpt>
      <trkpt lat="45.75451" lon="6.50964">
        <ele>1778</ele>
        <time>2025-06-19T14:46:16Z</time>
      </trkpt>
      <trkpt lat="45.75451" lon="6.50973">
        <ele>1779</ele>
        <time>2025-06-19T14:46:18Z</time>
      </trkpt>
      <trkpt lat="45.7545" lon="6.50983">
        <ele>1779</ele>
        <time>2025-06-19T14:46:19Z</time>
      </trkpt>
      <trkpt lat="45.75452" lon="6.51006">
        <ele>1780</ele>
        <time>2025-06-19T14:46:23Z</time>
      </trkpt>
      <trkpt lat="45.75452" lon="6.51026">
        <ele>1780</ele>
        <time>2025-06-19T14:46:27Z</time>
      </trkpt>
      <trkpt lat="45.75448" lon="6.51033">
        <ele>1781</ele>
        <time>2025-06-19T14:46:28Z</time>
      </trkpt>
      <trkpt lat="45.75442" lon="6.51039">
        <ele>1782</ele>
        <time>2025-06-19T14:46:30Z</time>
      </trkpt>
      <trkpt lat="45.75396" lon="6.51066">
        <ele>1792</ele>
        <time>2025-06-19T14:46:41Z</time>
      </trkpt>
      <trkpt lat="45.75391" lon="6.51077">
        <ele>1793</ele>
        <time>2025-06-19T14:46:43Z</time>
      </trkpt>
      <trkpt lat="45.75386" lon="6.51089">
        <ele>1794</ele>
        <time>2025-06-19T14:46:46Z</time>
      </trkpt>
      <trkpt lat="45.75373" lon="6.51108">
        <ele>1797</ele>
        <time>2025-06-19T14:46:50Z</time>
      </trkpt>
      <trkpt lat="45.75362" lon="6.51116">
        <ele>1799</ele>
        <time>2025-06-19T14:46:53Z</time>
      </trkpt>
      <trkpt lat="45.75343" lon="6.51123">
        <ele>1803</ele>
        <time>2025-06-19T14:46:58Z</time>
      </trkpt>
      <trkpt lat="45.75336" lon="6.51137">
        <ele>1804</ele>
        <time>2025-06-19T14:47:00Z</time>
      </trkpt>
      <trkpt lat="45.75327" lon="6.512">
        <ele>1807</ele>
        <time>2025-06-19T14:47:11Z</time>
      </trkpt>
      <trkpt lat="45.75329" lon="6.51216">
        <ele>1807</ele>
        <time>2025-06-19T14:47:13Z</time>
      </trkpt>
      <trkpt lat="45.75335" lon="6.51229">
        <ele>1806</ele>
        <time>2025-06-19T14:47:16Z</time>
      </trkpt>
      <trkpt lat="45.75336" lon="6.51233">
        <ele>1806</ele>
        <time>2025-06-19T14:47:17Z</time>
      </trkpt>
      <trkpt lat="45.75338" lon="6.51245">
        <ele>1806</ele>
        <time>2025-06-19T14:47:19Z</time>
      </trkpt>
      <trkpt lat="45.75322" lon="6.51301">
        <ele>1809</ele>
        <time>2025-06-19T14:47:29Z</time>
      </trkpt>
      <trkpt lat="45.75319" lon="6.51327">
        <ele>1810</ele>
        <time>2025-06-19T14:47:33Z</time>
      </trkpt>
      <trkpt lat="45.75298" lon="6.51404">
        <ele>1811</ele>
        <time>2025-06-19T14:47:46Z</time>
      </trkpt>
      <trkpt lat="45.75274" lon="6.51429">
        <ele>1814</ele>
        <time>2025-06-19T14:47:53Z</time>
      </trkpt>
      <trkpt lat="45.75266" lon="6.51438">
        <ele>1815</ele>
        <time>2025-06-19T14:47:56Z</time>
      </trkpt>
      <trkpt lat="45.75259" lon="6.51453">
        <ele>1815</ele>
        <time>2025-06-19T14:47:59Z</time>
      </trkpt>
      <trkpt lat="45.75253" lon="6.51464">
        <ele>1816</ele>
        <time>2025-06-19T14:48:01Z</time>
      </trkpt>
      <trkpt lat="45.75236" lon="6.51483">
        <ele>1818</ele>
        <time>2025-06-19T14:48:06Z</time>
      </trkpt>
      <trkpt lat="45.75232" lon="6.51498">
        <ele>1818</ele>
        <time>2025-06-19T14:48:08Z</time>
      </trkpt>
      <trkpt lat="45.75233" lon="6.5151">
        <ele>1817</ele>
        <time>2025-06-19T14:48:10Z</time>
      </trkpt>
      <trkpt lat="45.75237" lon="6.51529">
        <ele>1816</ele>
        <time>2025-06-19T14:48:14Z</time>
      </trkpt>
      <trkpt lat="45.75234" lon="6.5155">
        <ele>1816</ele>
        <time>2025-06-19T14:48:17Z</time>
      </trkpt>
      <trkpt lat="45.75225" lon="6.51565">
        <ele>1817</ele>
        <time>2025-06-19T14:48:20Z</time>
      </trkpt>
      <trkpt lat="45.75203" lon="6.51599">
        <ele>1817</ele>
        <time>2025-06-19T14:48:28Z</time>
      </trkpt>
      <trkpt lat="45.75193" lon="6.51609">
        <ele>1816</ele>
        <time>2025-06-19T14:48:31Z</time>
      </trkpt>
      <trkpt lat="45.75187" lon="6.51613">
        <ele>1816</ele>
        <time>2025-06-19T14:48:32Z</time>
      </trkpt>
      <trkpt lat="45.75182" lon="6.51614">
        <ele>1816</ele>
        <time>2025-06-19T14:48:34Z</time>
      </trkpt>
      <trkpt lat="45.75177" lon="6.51613">
        <ele>1817</ele>
        <time>2025-06-19T14:48:35Z</time>
      </trkpt>
      <trkpt lat="45.75167" lon="6.51605">
        <ele>1818</ele>
        <time>2025-06-19T14:48:37Z</time>
      </trkpt>
      <trkpt lat="45.75154" lon="6.51593">
        <ele>1818</ele>
        <time>2025-06-19T14:48:41Z</time>
      </trkpt>
      <trkpt lat="45.75134" lon="6.51576">
        <ele>1819</ele>
        <time>2025-06-19T14:48:46Z</time>
      </trkpt>
      <trkpt lat="45.75125" lon="6.51571">
        <ele>1820</ele>
        <time>2025-06-19T14:48:49Z</time>
      </trkpt>
      <trkpt lat="45.75115" lon="6.51568">
        <ele>1820</ele>
        <time>2025-06-19T14:48:51Z</time>
      </trkpt>
      <trkpt lat="45.75108" lon="6.51568">
        <ele>1819</ele>
        <time>2025-06-19T14:48:53Z</time>
      </trkpt>
      <trkpt lat="45.75101" lon="6.51569">
        <ele>1819</ele>
        <time>2025-06-19T14:48:54Z</time>
      </trkpt>
      <trkpt lat="45.75096" lon="6.51571">
        <ele>1818</ele>
        <time>2025-06-19T14:48:56Z</time>
      </trkpt>
      <trkpt lat="45.75089" lon="6.5158">
        <ele>1817</ele>
        <time>2025-06-19T14:48:58Z</time>
      </trkpt>
      <trkpt lat="45.75078" lon="6.51605">
        <ele>1815</ele>
        <time>2025-06-19T14:49:03Z</time>
      </trkpt>
      <trkpt lat="45.75074" lon="6.51636">
        <ele>1813</ele>
        <time>2025-06-19T14:49:08Z</time>
      </trkpt>
      <trkpt lat="45.75064" lon="6.51667">
        <ele>1813</ele>
        <time>2025-06-19T14:49:13Z</time>
      </trkpt>
      <trkpt lat="45.75059" lon="6.51691">
        <ele>1812</ele>
        <time>2025-06-19T14:49:17Z</time>
      </trkpt>
      <trkpt lat="45.7505" lon="6.51717">
        <ele>1812</ele>
        <time>2025-06-19T14:49:22Z</time>
      </trkpt>
      <trkpt lat="45.7502" lon="6.51773">
        <ele>1812</ele>
        <time>2025-06-19T14:49:34Z</time>
      </trkpt>
      <trkpt lat="45.75013" lon="6.51783">
        <ele>1812</ele>
        <time>2025-06-19T14:49:36Z</time>
      </trkpt>
      <trkpt lat="45.75005" lon="6.51803">
        <ele>1812</ele>
        <time>2025-06-19T14:49:40Z</time>
      </trkpt>
      <trkpt lat="45.74999" lon="6.51814">
        <ele>1811</ele>
        <time>2025-06-19T14:49:42Z</time>
      </trkpt>
      <trkpt lat="45.74994" lon="6.51823">
        <ele>1811</ele>
        <time>2025-06-19T14:49:44Z</time>
      </trkpt>
      <trkpt lat="45.74987" lon="6.5183">
        <ele>1810</ele>
        <time>2025-06-19T14:49:46Z</time>
      </trkpt>
      <trkpt lat="45.74971" lon="6.5184">
        <ele>1810</ele>
        <time>2025-06-19T14:49:50Z</time>
      </trkpt>
      <trkpt lat="45.74957" lon="6.51846">
        <ele>1811</ele>
        <time>2025-06-19T14:49:53Z</time>
      </trkpt>
      <trkpt lat="45.74942" lon="6.5185">
        <ele>1811</ele>
        <time>2025-06-19T14:49:57Z</time>
      </trkpt>
      <trkpt lat="45.74939" lon="6.51853">
        <ele>1811</ele>
        <time>2025-06-19T14:49:58Z</time>
      </trkpt>
      <trkpt lat="45.74937" lon="6.51858">
        <ele>1810</ele>
        <time>2025-06-19T14:49:59Z</time>
      </trkpt>
      <trkpt lat="45.74935" lon="6.51866">
        <ele>1810</ele>
        <time>2025-06-19T14:50:00Z</time>
      </trkpt>
      <trkpt lat="45.74935" lon="6.51878">
        <ele>1808</ele>
        <time>2025-06-19T14:50:02Z</time>
      </trkpt>
      <trkpt lat="45.74933" lon="6.51887">
        <ele>1807</ele>
        <time>2025-06-19T14:50:04Z</time>
      </trkpt>
      <trkpt lat="45.74926" lon="6.51892">
        <ele>1807</ele>
        <time>2025-06-19T14:50:05Z</time>
      </trkpt>
      <trkpt lat="45.74891" lon="6.51898">
        <ele>1806</ele>
        <time>2025-06-19T14:50:14Z</time>
      </trkpt>
      <trkpt lat="45.74879" lon="6.51903">
        <ele>1805</ele>
        <time>2025-06-19T14:50:17Z</time>
      </trkpt>
      <trkpt lat="45.74874" lon="6.51906">
        <ele>1804</ele>
        <time>2025-06-19T14:50:18Z</time>
      </trkpt>
      <trkpt lat="45.7486" lon="6.51921">
        <ele>1802</ele>
        <time>2025-06-19T14:50:22Z</time>
      </trkpt>
      <trkpt lat="45.74863" lon="6.51923">
        <ele>1802</ele>
        <time>2025-06-19T14:50:23Z</time>
      </trkpt>
      <trkpt lat="45.74865" lon="6.51927">
        <ele>1802</ele>
        <time>2025-06-19T14:50:23Z</time>
      </trkpt>
      <trkpt lat="45.74866" lon="6.51937">
        <ele>1802</ele>
        <time>2025-06-19T14:50:25Z</time>
      </trkpt>
      <trkpt lat="45.7486" lon="6.52038">
        <ele>1798</ele>
        <time>2025-06-19T14:50:42Z</time>
      </trkpt>
      <trkpt lat="45.7486" lon="6.52056">
        <ele>1797</ele>
        <time>2025-06-19T14:50:45Z</time>
      </trkpt>
      <trkpt lat="45.74858" lon="6.52085">
        <ele>1796</ele>
        <time>2025-06-19T14:50:49Z</time>
      </trkpt>
      <trkpt lat="45.74858" lon="6.52121">
        <ele>1794</ele>
        <time>2025-06-19T14:50:55Z</time>
      </trkpt>
      <trkpt lat="45.74853" lon="6.52166">
        <ele>1792</ele>
        <time>2025-06-19T14:51:03Z</time>
      </trkpt>
      <trkpt lat="45.74851" lon="6.5217">
        <ele>1792</ele>
        <time>2025-06-19T14:51:03Z</time>
      </trkpt>
      <trkpt lat="45.74851" lon="6.52196">
        <ele>1791</ele>
        <time>2025-06-19T14:51:08Z</time>
      </trkpt>
      <trkpt lat="45.7485" lon="6.52255">
        <ele>1788</ele>
        <time>2025-06-19T14:51:17Z</time>
      </trkpt>
      <trkpt lat="45.74848" lon="6.52271">
        <ele>1788</ele>
        <time>2025-06-19T14:51:20Z</time>
      </trkpt>
      <trkpt lat="45.74845" lon="6.52282">
        <ele>1788</ele>
        <time>2025-06-19T14:51:22Z</time>
      </trkpt>
      <trkpt lat="45.74843" lon="6.52288">
        <ele>1788</ele>
        <time>2025-06-19T14:51:23Z</time>
      </trkpt>
      <trkpt lat="45.74833" lon="6.52312">
        <ele>1788</ele>
        <time>2025-06-19T14:51:27Z</time>
      </trkpt>
      <trkpt lat="45.74838" lon="6.52314">
        <ele>1788</ele>
        <time>2025-06-19T14:51:29Z</time>
      </trkpt>
      <trkpt lat="45.74853" lon="6.52315">
        <ele>1787</ele>
        <time>2025-06-19T14:51:32Z</time>
      </trkpt>
      <trkpt lat="45.74877" lon="6.52312">
        <ele>1786</ele>
        <time>2025-06-19T14:51:38Z</time>
      </trkpt>
      <trkpt lat="45.74877" lon="6.52318">
        <ele>1786</ele>
        <time>2025-06-19T14:51:39Z</time>
      </trkpt>
      <trkpt lat="45.74874" lon="6.52328">
        <ele>1786</ele>
        <time>2025-06-19T14:51:41Z</time>
      </trkpt>
      <trkpt lat="45.7487" lon="6.52339">
        <ele>1785</ele>
        <time>2025-06-19T14:51:43Z</time>
      </trkpt>
      <trkpt lat="45.74868" lon="6.52357">
        <ele>1784</ele>
        <time>2025-06-19T14:51:46Z</time>
      </trkpt>
      <trkpt lat="45.7487" lon="6.52365">
        <ele>1783</ele>
        <time>2025-06-19T14:51:47Z</time>
      </trkpt>
      <trkpt lat="45.74871" lon="6.52378">
        <ele>1782</ele>
        <time>2025-06-19T14:51:49Z</time>
      </trkpt>
      <trkpt lat="45.74872" lon="6.52391">
        <ele>1781</ele>
        <time>2025-06-19T14:51:51Z</time>
      </trkpt>
      <trkpt lat="45.74869" lon="6.52411">
        <ele>1780</ele>
        <time>2025-06-19T14:51:55Z</time>
      </trkpt>
      <trkpt lat="45.74869" lon="6.52439">
        <ele>1778</ele>
        <time>2025-06-19T14:51:59Z</time>
      </trkpt>
      <trkpt lat="45.74874" lon="6.52447">
        <ele>1777</ele>
        <time>2025-06-19T14:52:01Z</time>
      </trkpt>
      <trkpt lat="45.74882" lon="6.52453">
        <ele>1777</ele>
        <time>2025-06-19T14:52:03Z</time>
      </trkpt>
      <trkpt lat="45.74887" lon="6.52459">
        <ele>1776</ele>
        <time>2025-06-19T14:52:04Z</time>
      </trkpt>
      <trkpt lat="45.74894" lon="6.52461">
        <ele>1776</ele>
        <time>2025-06-19T14:52:06Z</time>
      </trkpt>
      <trkpt lat="45.74896" lon="6.52471">
        <ele>1775</ele>
        <time>2025-06-19T14:52:08Z</time>
      </trkpt>
      <trkpt lat="45.74891" lon="6.52485">
        <ele>1775</ele>
        <time>2025-06-19T14:52:10Z</time>
      </trkpt>
      <trkpt lat="45.7489" lon="6.52492">
        <ele>1774</ele>
        <time>2025-06-19T14:52:12Z</time>
      </trkpt>
      <trkpt lat="45.74894" lon="6.52498">
        <ele>1774</ele>
        <time>2025-06-19T14:52:13Z</time>
      </trkpt>
      <trkpt lat="45.74899" lon="6.52503">
        <ele>1773</ele>
        <time>2025-06-19T14:52:14Z</time>
      </trkpt>
      <trkpt lat="45.749" lon="6.52509">
        <ele>1772</ele>
        <time>2025-06-19T14:52:15Z</time>
      </trkpt>
      <trkpt lat="45.74899" lon="6.52516">
        <ele>1771</ele>
        <time>2025-06-19T14:52:16Z</time>
      </trkpt>
      <trkpt lat="45.74894" lon="6.52532">
        <ele>1769</ele>
        <time>2025-06-19T14:52:19Z</time>
      </trkpt>
      <trkpt lat="45.74897" lon="6.5254">
        <ele>1767</ele>
        <time>2025-06-19T14:52:21Z</time>
      </trkpt>
      <trkpt lat="45.74896" lon="6.52541">
        <ele>1767</ele>
        <time>2025-06-19T14:52:21Z</time>
      </trkpt>
      <trkpt lat="45.7489" lon="6.52546">
        <ele>1767</ele>
        <time>2025-06-19T14:52:23Z</time>
      </trkpt>
      <trkpt lat="45.74881" lon="6.52551">
        <ele>1767</ele>
        <time>2025-06-19T14:52:25Z</time>
      </trkpt>
      <trkpt lat="45.74878" lon="6.52557">
        <ele>1766</ele>
        <time>2025-06-19T14:52:26Z</time>
      </trkpt>
      <trkpt lat="45.74872" lon="6.52568">
        <ele>1765</ele>
        <time>2025-06-19T14:52:28Z</time>
      </trkpt>
      <trkpt lat="45.74872" lon="6.52573">
        <ele>1765</ele>
        <time>2025-06-19T14:52:29Z</time>
      </trkpt>
      <trkpt lat="45.74874" lon="6.52577">
        <ele>1764</ele>
        <time>2025-06-19T14:52:30Z</time>
      </trkpt>
      <trkpt lat="45.74876" lon="6.52581">
        <ele>1763</ele>
        <time>2025-06-19T14:52:31Z</time>
      </trkpt>
      <trkpt lat="45.74876" lon="6.5259">
        <ele>1762</ele>
        <time>2025-06-19T14:52:32Z</time>
      </trkpt>
      <trkpt lat="45.74874" lon="6.52596">
        <ele>1761</ele>
        <time>2025-06-19T14:52:33Z</time>
      </trkpt>
      <trkpt lat="45.74878" lon="6.52613">
        <ele>1758</ele>
        <time>2025-06-19T14:52:36Z</time>
      </trkpt>
      <trkpt lat="45.74873" lon="6.52641">
        <ele>1755</ele>
        <time>2025-06-19T14:52:41Z</time>
      </trkpt>
      <trkpt lat="45.74876" lon="6.52648">
        <ele>1754</ele>
        <time>2025-06-19T14:52:42Z</time>
      </trkpt>
      <trkpt lat="45.7488" lon="6.52644">
        <ele>1754</ele>
        <time>2025-06-19T14:52:44Z</time>
      </trkpt>
      <trkpt lat="45.74885" lon="6.52645">
        <ele>1753</ele>
        <time>2025-06-19T14:52:45Z</time>
      </trkpt>
      <trkpt lat="45.74884" lon="6.52651">
        <ele>1752</ele>
        <time>2025-06-19T14:52:46Z</time>
      </trkpt>
      <trkpt lat="45.74882" lon="6.52661">
        <ele>1751</ele>
        <time>2025-06-19T14:52:47Z</time>
      </trkpt>
      <trkpt lat="45.74878" lon="6.52671">
        <ele>1750</ele>
        <time>2025-06-19T14:52:49Z</time>
      </trkpt>
      <trkpt lat="45.74876" lon="6.52681">
        <ele>1749</ele>
        <time>2025-06-19T14:52:51Z</time>
      </trkpt>
      <trkpt lat="45.74876" lon="6.52688">
        <ele>1748</ele>
        <time>2025-06-19T14:52:52Z</time>
      </trkpt>
      <trkpt lat="45.74871" lon="6.52694">
        <ele>1747</ele>
        <time>2025-06-19T14:52:54Z</time>
      </trkpt>
      <trkpt lat="45.74872" lon="6.52701">
        <ele>1746</ele>
        <time>2025-06-19T14:52:55Z</time>
      </trkpt>
      <trkpt lat="45.74875" lon="6.52704">
        <ele>1745</ele>
        <time>2025-06-19T14:52:56Z</time>
      </trkpt>
      <trkpt lat="45.74879" lon="6.52701">
        <ele>1745</ele>
        <time>2025-06-19T14:52:57Z</time>
      </trkpt>
      <trkpt lat="45.74882" lon="6.52693">
        <ele>1746</ele>
        <time>2025-06-19T14:52:58Z</time>
      </trkpt>
      <trkpt lat="45.74885" lon="6.52693">
        <ele>1746</ele>
        <time>2025-06-19T14:52:59Z</time>
      </trkpt>
      <trkpt lat="45.74888" lon="6.52699">
        <ele>1744</ele>
        <time>2025-06-19T14:53:00Z</time>
      </trkpt>
      <trkpt lat="45.74887" lon="6.52706">
        <ele>1743</ele>
        <time>2025-06-19T14:53:01Z</time>
      </trkpt>
      <trkpt lat="45.74885" lon="6.52713">
        <ele>1742</ele>
        <time>2025-06-19T14:53:03Z</time>
      </trkpt>
      <trkpt lat="45.74882" lon="6.52721">
        <ele>1742</ele>
        <time>2025-06-19T14:53:04Z</time>
      </trkpt>
      <trkpt lat="45.74877" lon="6.52744">
        <ele>1739</ele>
        <time>2025-06-19T14:53:08Z</time>
      </trkpt>
      <trkpt lat="45.74871" lon="6.52746">
        <ele>1739</ele>
        <time>2025-06-19T14:53:09Z</time>
      </trkpt>
      <trkpt lat="45.74856" lon="6.52767">
        <ele>1737</ele>
        <time>2025-06-19T14:53:14Z</time>
      </trkpt>
      <trkpt lat="45.74844" lon="6.52774">
        <ele>1737</ele>
        <time>2025-06-19T14:53:17Z</time>
      </trkpt>
      <trkpt lat="45.74817" lon="6.5278">
        <ele>1737</ele>
        <time>2025-06-19T14:53:24Z</time>
      </trkpt>
      <trkpt lat="45.748" lon="6.5278">
        <ele>1736</ele>
        <time>2025-06-19T14:53:28Z</time>
      </trkpt>
      <trkpt lat="45.74785" lon="6.52768">
        <ele>1737</ele>
        <time>2025-06-19T14:53:32Z</time>
      </trkpt>
      <trkpt lat="45.74763" lon="6.52766">
        <ele>1736</ele>
        <time>2025-06-19T14:53:37Z</time>
      </trkpt>
      <trkpt lat="45.7476" lon="6.5277">
        <ele>1735</ele>
        <time>2025-06-19T14:53:38Z</time>
      </trkpt>
      <trkpt lat="45.74763" lon="6.52779">
        <ele>1735</ele>
        <time>2025-06-19T14:53:39Z</time>
      </trkpt>
      <trkpt lat="45.74769" lon="6.5279">
        <ele>1734</ele>
        <time>2025-06-19T14:53:42Z</time>
      </trkpt>
      <trkpt lat="45.74775" lon="6.52805">
        <ele>1733</ele>
        <time>2025-06-19T14:53:44Z</time>
      </trkpt>
      <trkpt lat="45.74776" lon="6.52815">
        <ele>1732</ele>
        <time>2025-06-19T14:53:46Z</time>
      </trkpt>
      <trkpt lat="45.74777" lon="6.52839">
        <ele>1729</ele>
        <time>2025-06-19T14:53:50Z</time>
      </trkpt>
      <trkpt lat="45.74779" lon="6.5286">
        <ele>1728</ele>
        <time>2025-06-19T14:53:53Z</time>
      </trkpt>
      <trkpt lat="45.74783" lon="6.52888">
        <ele>1727</ele>
        <time>2025-06-19T14:53:58Z</time>
      </trkpt>
      <trkpt lat="45.74783" lon="6.52897">
        <ele>1726</ele>
        <time>2025-06-19T14:54:00Z</time>
      </trkpt>
      <trkpt lat="45.74779" lon="6.52933">
        <ele>1725</ele>
        <time>2025-06-19T14:54:06Z</time>
      </trkpt>
      <trkpt lat="45.74781" lon="6.5294">
        <ele>1724</ele>
        <time>2025-06-19T14:54:07Z</time>
      </trkpt>
      <trkpt lat="45.74788" lon="6.52951">
        <ele>1723</ele>
        <time>2025-06-19T14:54:09Z</time>
      </trkpt>
      <trkpt lat="45.7479" lon="6.52956">
        <ele>1722</ele>
        <time>2025-06-19T14:54:10Z</time>
      </trkpt>
      <trkpt lat="45.74798" lon="6.52966">
        <ele>1720</ele>
        <time>2025-06-19T14:54:13Z</time>
      </trkpt>
      <trkpt lat="45.74798" lon="6.52972">
        <ele>1720</ele>
        <time>2025-06-19T14:54:14Z</time>
      </trkpt>
      <trkpt lat="45.74796" lon="6.52986">
        <ele>1719</ele>
        <time>2025-06-19T14:54:16Z</time>
      </trkpt>
      <trkpt lat="45.74796" lon="6.5299">
        <ele>1719</ele>
        <time>2025-06-19T14:54:17Z</time>
      </trkpt>
      <trkpt lat="45.748" lon="6.53004">
        <ele>1717</ele>
        <time>2025-06-19T14:54:19Z</time>
      </trkpt>
      <trkpt lat="45.74805" lon="6.53011">
        <ele>1716</ele>
        <time>2025-06-19T14:54:21Z</time>
      </trkpt>
      <trkpt lat="45.7481" lon="6.53029">
        <ele>1714</ele>
        <time>2025-06-19T14:54:24Z</time>
      </trkpt>
      <trkpt lat="45.74811" lon="6.53051">
        <ele>1713</ele>
        <time>2025-06-19T14:54:27Z</time>
      </trkpt>
      <trkpt lat="45.74814" lon="6.53057">
        <ele>1712</ele>
        <time>2025-06-19T14:54:29Z</time>
      </trkpt>
      <trkpt lat="45.74815" lon="6.53063">
        <ele>1712</ele>
        <time>2025-06-19T14:54:30Z</time>
      </trkpt>
      <trkpt lat="45.74817" lon="6.53072">
        <ele>1711</ele>
        <time>2025-06-19T14:54:31Z</time>
      </trkpt>
      <trkpt lat="45.74821" lon="6.53076">
        <ele>1710</ele>
        <time>2025-06-19T14:54:32Z</time>
      </trkpt>
      <trkpt lat="45.7483" lon="6.53087">
        <ele>1708</ele>
        <time>2025-06-19T14:54:35Z</time>
      </trkpt>
      <trkpt lat="45.74837" lon="6.53098">
        <ele>1707</ele>
        <time>2025-06-19T14:54:38Z</time>
      </trkpt>
      <trkpt lat="45.74842" lon="6.5312">
        <ele>1705</ele>
        <time>2025-06-19T14:54:41Z</time>
      </trkpt>
      <trkpt lat="45.74845" lon="6.53122">
        <ele>1704</ele>
        <time>2025-06-19T14:54:42Z</time>
      </trkpt>
      <trkpt lat="45.74848" lon="6.53116">
        <ele>1704</ele>
        <time>2025-06-19T14:54:43Z</time>
      </trkpt>
      <trkpt lat="45.74852" lon="6.53118">
        <ele>1703</ele>
        <time>2025-06-19T14:54:44Z</time>
      </trkpt>
      <trkpt lat="45.74854" lon="6.53122">
        <ele>1703</ele>
        <time>2025-06-19T14:54:45Z</time>
      </trkpt>
      <trkpt lat="45.74853" lon="6.53131">
        <ele>1703</ele>
        <time>2025-06-19T14:54:47Z</time>
      </trkpt>
      <trkpt lat="45.7486" lon="6.53143">
        <ele>1701</ele>
        <time>2025-06-19T14:54:49Z</time>
      </trkpt>
      <trkpt lat="45.74865" lon="6.53155">
        <ele>1699</ele>
        <time>2025-06-19T14:54:51Z</time>
      </trkpt>
      <trkpt lat="45.74869" lon="6.53169">
        <ele>1698</ele>
        <time>2025-06-19T14:54:54Z</time>
      </trkpt>
      <trkpt lat="45.74854" lon="6.53204">
        <ele>1696</ele>
        <time>2025-06-19T14:55:01Z</time>
      </trkpt>
      <trkpt lat="45.74851" lon="6.5321">
        <ele>1695</ele>
        <time>2025-06-19T14:55:02Z</time>
      </trkpt>
      <trkpt lat="45.7485" lon="6.53219">
        <ele>1694</ele>
        <time>2025-06-19T14:55:03Z</time>
      </trkpt>
      <trkpt lat="45.74855" lon="6.53223">
        <ele>1693</ele>
        <time>2025-06-19T14:55:05Z</time>
      </trkpt>
      <trkpt lat="45.74864" lon="6.53223">
        <ele>1692</ele>
        <time>2025-06-19T14:55:07Z</time>
      </trkpt>
      <trkpt lat="45.74875" lon="6.53229">
        <ele>1690</ele>
        <time>2025-06-19T14:55:09Z</time>
      </trkpt>
      <trkpt lat="45.7489" lon="6.53239">
        <ele>1687</ele>
        <time>2025-06-19T14:55:13Z</time>
      </trkpt>
      <trkpt lat="45.74897" lon="6.53254">
        <ele>1685</ele>
        <time>2025-06-19T14:55:16Z</time>
      </trkpt>
      <trkpt lat="45.74905" lon="6.53278">
        <ele>1682</ele>
        <time>2025-06-19T14:55:21Z</time>
      </trkpt>
      <trkpt lat="45.74912" lon="6.53288">
        <ele>1680</ele>
        <time>2025-06-19T14:55:23Z</time>
      </trkpt>
      <trkpt lat="45.74915" lon="6.53289">
        <ele>1679</ele>
        <time>2025-06-19T14:55:24Z</time>
      </trkpt>
      <trkpt lat="45.74925" lon="6.53286">
        <ele>1678</ele>
        <time>2025-06-19T14:55:26Z</time>
      </trkpt>
      <trkpt lat="45.74934" lon="6.53278">
        <ele>1678</ele>
        <time>2025-06-19T14:55:28Z</time>
      </trkpt>
      <trkpt lat="45.74937" lon="6.53282">
        <ele>1677</ele>
        <time>2025-06-19T14:55:29Z</time>
      </trkpt>
      <trkpt lat="45.74936" lon="6.53291">
        <ele>1676</ele>
        <time>2025-06-19T14:55:31Z</time>
      </trkpt>
      <trkpt lat="45.74933" lon="6.533">
        <ele>1676</ele>
        <time>2025-06-19T14:55:32Z</time>
      </trkpt>
      <trkpt lat="45.74934" lon="6.53304">
        <ele>1675</ele>
        <time>2025-06-19T14:55:33Z</time>
      </trkpt>
      <trkpt lat="45.74937" lon="6.53303">
        <ele>1675</ele>
        <time>2025-06-19T14:55:34Z</time>
      </trkpt>
      <trkpt lat="45.74941" lon="6.53298">
        <ele>1675</ele>
        <time>2025-06-19T14:55:35Z</time>
      </trkpt>
      <trkpt lat="45.74945" lon="6.53298">
        <ele>1674</ele>
        <time>2025-06-19T14:55:36Z</time>
      </trkpt>
      <trkpt lat="45.74948" lon="6.5331">
        <ele>1672</ele>
        <time>2025-06-19T14:55:38Z</time>
      </trkpt>
      <trkpt lat="45.74946" lon="6.53324">
        <ele>1671</ele>
        <time>2025-06-19T14:55:40Z</time>
      </trkpt>
      <trkpt lat="45.74937" lon="6.53349">
        <ele>1670</ele>
        <time>2025-06-19T14:55:45Z</time>
      </trkpt>
      <trkpt lat="45.74934" lon="6.53364">
        <ele>1669</ele>
        <time>2025-06-19T14:55:48Z</time>
      </trkpt>
      <trkpt lat="45.74937" lon="6.53365">
        <ele>1668</ele>
        <time>2025-06-19T14:55:48Z</time>
      </trkpt>
      <trkpt lat="45.74942" lon="6.53364">
        <ele>1668</ele>
        <time>2025-06-19T14:55:49Z</time>
      </trkpt>
      <trkpt lat="45.74947" lon="6.53359">
        <ele>1667</ele>
        <time>2025-06-19T14:55:51Z</time>
      </trkpt>
      <trkpt lat="45.74961" lon="6.53352">
        <ele>1666</ele>
        <time>2025-06-19T14:55:54Z</time>
      </trkpt>
      <trkpt lat="45.74973" lon="6.5335">
        <ele>1664</ele>
        <time>2025-06-19T14:55:57Z</time>
      </trkpt>
      <trkpt lat="45.75013" lon="6.53355">
        <ele>1657</ele>
        <time>2025-06-19T14:56:07Z</time>
      </trkpt>
      <trkpt lat="45.75044" lon="6.53357">
        <ele>1653</ele>
        <time>2025-06-19T14:56:14Z</time>
      </trkpt>
      <trkpt lat="45.75053" lon="6.53358">
        <ele>1652</ele>
        <time>2025-06-19T14:56:16Z</time>
      </trkpt>
      <trkpt lat="45.75075" lon="6.53352">
        <ele>1650</ele>
        <time>2025-06-19T14:56:21Z</time>
      </trkpt>
      <trkpt lat="45.75082" lon="6.53352">
        <ele>1649</ele>
        <time>2025-06-19T14:56:23Z</time>
      </trkpt>
      <trkpt lat="45.75089" lon="6.5335">
        <ele>1648</ele>
        <time>2025-06-19T14:56:24Z</time>
      </trkpt>
      <trkpt lat="45.75098" lon="6.53344">
        <ele>1648</ele>
        <time>2025-06-19T14:56:27Z</time>
      </trkpt>
      <trkpt lat="45.75116" lon="6.53338">
        <ele>1647</ele>
        <time>2025-06-19T14:56:31Z</time>
      </trkpt>
      <trkpt lat="45.75133" lon="6.53329">
        <ele>1646</ele>
        <time>2025-06-19T14:56:35Z</time>
      </trkpt>
      <trkpt lat="45.75158" lon="6.53321">
        <ele>1644</ele>
        <time>2025-06-19T14:56:41Z</time>
      </trkpt>
      <trkpt lat="45.75177" lon="6.53313">
        <ele>1642</ele>
        <time>2025-06-19T14:56:46Z</time>
      </trkpt>
      <trkpt lat="45.75208" lon="6.53298">
        <ele>1640</ele>
        <time>2025-06-19T14:56:54Z</time>
      </trkpt>
      <trkpt lat="45.75226" lon="6.5329">
        <ele>1638</ele>
        <time>2025-06-19T14:56:58Z</time>
      </trkpt>
      <trkpt lat="45.75238" lon="6.53275">
        <ele>1637</ele>
        <time>2025-06-19T14:57:02Z</time>
      </trkpt>
      <trkpt lat="45.7526" lon="6.53259">
        <ele>1635</ele>
        <time>2025-06-19T14:57:07Z</time>
      </trkpt>
      <trkpt lat="45.75274" lon="6.53243">
        <ele>1634</ele>
        <time>2025-06-19T14:57:12Z</time>
      </trkpt>
      <trkpt lat="45.75284" lon="6.53235">
        <ele>1632</ele>
        <time>2025-06-19T14:57:14Z</time>
      </trkpt>
      <trkpt lat="45.7529" lon="6.53236">
        <ele>1632</ele>
        <time>2025-06-19T14:57:16Z</time>
      </trkpt>
      <trkpt lat="45.75304" lon="6.53245">
        <ele>1630</ele>
        <time>2025-06-19T14:57:19Z</time>
      </trkpt>
      <trkpt lat="45.75323" lon="6.53262">
        <ele>1628</ele>
        <time>2025-06-19T14:57:25Z</time>
      </trkpt>
      <trkpt lat="45.75342" lon="6.53277">
        <ele>1625</ele>
        <time>2025-06-19T14:57:30Z</time>
      </trkpt>
      <trkpt lat="45.7537" lon="6.53295">
        <ele>1622</ele>
        <time>2025-06-19T14:57:37Z</time>
      </trkpt>
      <trkpt lat="45.75395" lon="6.5331">
        <ele>1618</ele>
        <time>2025-06-19T14:57:43Z</time>
      </trkpt>
      <trkpt lat="45.75439" lon="6.53334">
        <ele>1614</ele>
        <time>2025-06-19T14:57:54Z</time>
      </trkpt>
      <trkpt lat="45.75454" lon="6.53341">
        <ele>1614</ele>
        <time>2025-06-19T14:57:58Z</time>
      </trkpt>
      <trkpt lat="45.75463" lon="6.53346">
        <ele>1614</ele>
        <time>2025-06-19T14:58:00Z</time>
      </trkpt>
      <trkpt lat="45.75465" lon="6.53336">
        <ele>1614</ele>
        <time>2025-06-19T14:58:02Z</time>
      </trkpt>
      <trkpt lat="45.75466" lon="6.53331">
        <ele>1614</ele>
        <time>2025-06-19T14:58:03Z</time>
      </trkpt>
      <trkpt lat="45.75475" lon="6.5332">
        <ele>1614</ele>
        <time>2025-06-19T14:58:05Z</time>
      </trkpt>
      <trkpt lat="45.7548" lon="6.53309">
        <ele>1614</ele>
        <time>2025-06-19T14:58:07Z</time>
      </trkpt>
      <trkpt lat="45.75483" lon="6.53273">
        <ele>1614</ele>
        <time>2025-06-19T14:58:13Z</time>
      </trkpt>
      <trkpt lat="45.75485" lon="6.53259">
        <ele>1614</ele>
        <time>2025-06-19T14:58:16Z</time>
      </trkpt>
      <trkpt lat="45.75482" lon="6.53247">
        <ele>1614</ele>
        <time>2025-06-19T14:58:18Z</time>
      </trkpt>
      <trkpt lat="45.75483" lon="6.53235">
        <ele>1614</ele>
        <time>2025-06-19T14:58:20Z</time>
      </trkpt>
      <trkpt lat="45.75485" lon="6.53222">
        <ele>1615</ele>
        <time>2025-06-19T14:58:22Z</time>
      </trkpt>
      <trkpt lat="45.75503" lon="6.53187">
        <ele>1615</ele>
        <time>2025-06-19T14:58:29Z</time>
      </trkpt>
      <trkpt lat="45.75526" lon="6.53168">
        <ele>1616</ele>
        <time>2025-06-19T14:58:35Z</time>
      </trkpt>
      <trkpt lat="45.75555" lon="6.5314">
        <ele>1617</ele>
        <time>2025-06-19T14:58:43Z</time>
      </trkpt>
      <trkpt lat="45.75568" lon="6.53126">
        <ele>1618</ele>
        <time>2025-06-19T14:58:47Z</time>
      </trkpt>
      <trkpt lat="45.75575" lon="6.53114">
        <ele>1618</ele>
        <time>2025-06-19T14:58:50Z</time>
      </trkpt>
      <trkpt lat="45.75586" lon="6.53091">
        <ele>1618</ele>
        <time>2025-06-19T14:58:54Z</time>
      </trkpt>
      <trkpt lat="45.75588" lon="6.53087">
        <ele>1618</ele>
        <time>2025-06-19T14:58:55Z</time>
      </trkpt>
      <trkpt lat="45.75594" lon="6.53079">
        <ele>1619</ele>
        <time>2025-06-19T14:58:57Z</time>
      </trkpt>
      <trkpt lat="45.75604" lon="6.53073">
        <ele>1620</ele>
        <time>2025-06-19T14:59:00Z</time>
      </trkpt>
      <trkpt lat="45.7561" lon="6.53068">
        <ele>1620</ele>
        <time>2025-06-19T14:59:01Z</time>
      </trkpt>
      <trkpt lat="45.75622" lon="6.5307">
        <ele>1621</ele>
        <time>2025-06-19T14:59:04Z</time>
      </trkpt>
      <trkpt lat="45.75627" lon="6.53072">
        <ele>1622</ele>
        <time>2025-06-19T14:59:05Z</time>
      </trkpt>
      <trkpt lat="45.75632" lon="6.53077">
        <ele>1622</ele>
        <time>2025-06-19T14:59:07Z</time>
      </trkpt>
      <trkpt lat="45.75644" lon="6.53095">
        <ele>1623</ele>
        <time>2025-06-19T14:59:11Z</time>
      </trkpt>
      <trkpt lat="45.75658" lon="6.53122">
        <ele>1625</ele>
        <time>2025-06-19T14:59:16Z</time>
      </trkpt>
      <trkpt lat="45.75665" lon="6.5314">
        <ele>1626</ele>
        <time>2025-06-19T14:59:19Z</time>
      </trkpt>
      <trkpt lat="45.7567" lon="6.5314">
        <ele>1627</ele>
        <time>2025-06-19T14:59:21Z</time>
      </trkpt>
      <trkpt lat="45.75673" lon="6.5314">
        <ele>1627</ele>
        <time>2025-06-19T14:59:21Z</time>
      </trkpt>
      <trkpt lat="45.75677" lon="6.53132">
        <ele>1628</ele>
        <time>2025-06-19T14:59:23Z</time>
      </trkpt>
      <trkpt lat="45.75682" lon="6.5312">
        <ele>1628</ele>
        <time>2025-06-19T14:59:25Z</time>
      </trkpt>
      <trkpt lat="45.75688" lon="6.53105">
        <ele>1629</ele>
        <time>2025-06-19T14:59:28Z</time>
      </trkpt>
      <trkpt lat="45.75693" lon="6.53095">
        <ele>1629</ele>
        <time>2025-06-19T14:59:30Z</time>
      </trkpt>
      <trkpt lat="45.75699" lon="6.53091">
        <ele>1630</ele>
        <time>2025-06-19T14:59:32Z</time>
      </trkpt>
      <trkpt lat="45.75704" lon="6.5309">
        <ele>1630</ele>
        <time>2025-06-19T14:59:33Z</time>
      </trkpt>
      <trkpt lat="45.75708" lon="6.53092">
        <ele>1631</ele>
        <time>2025-06-19T14:59:34Z</time>
      </trkpt>
      <trkpt lat="45.75711" lon="6.53094">
        <ele>1631</ele>
        <time>2025-06-19T14:59:35Z</time>
      </trkpt>
      <trkpt lat="45.75714" lon="6.53104">
        <ele>1632</ele>
        <time>2025-06-19T14:59:36Z</time>
      </trkpt>
      <trkpt lat="45.75714" lon="6.53111">
        <ele>1632</ele>
        <time>2025-06-19T14:59:37Z</time>
      </trkpt>
      <trkpt lat="45.7571" lon="6.53133">
        <ele>1633</ele>
        <time>2025-06-19T14:59:41Z</time>
      </trkpt>
      <trkpt lat="45.75709" lon="6.53145">
        <ele>1633</ele>
        <time>2025-06-19T14:59:43Z</time>
      </trkpt>
      <trkpt lat="45.75711" lon="6.53152">
        <ele>1634</ele>
        <time>2025-06-19T14:59:44Z</time>
      </trkpt>
      <trkpt lat="45.75712" lon="6.5316">
        <ele>1634</ele>
        <time>2025-06-19T14:59:46Z</time>
      </trkpt>
      <trkpt lat="45.75727" lon="6.53183">
        <ele>1637</ele>
        <time>2025-06-19T14:59:51Z</time>
      </trkpt>
      <trkpt lat="45.75735" lon="6.532">
        <ele>1638</ele>
        <time>2025-06-19T14:59:54Z</time>
      </trkpt>
      <trkpt lat="45.75739" lon="6.53202">
        <ele>1639</ele>
        <time>2025-06-19T14:59:55Z</time>
      </trkpt>
      <trkpt lat="45.75742" lon="6.53203">
        <ele>1640</ele>
        <time>2025-06-19T14:59:56Z</time>
      </trkpt>
      <trkpt lat="45.75745" lon="6.53201">
        <ele>1640</ele>
        <time>2025-06-19T14:59:57Z</time>
      </trkpt>
      <trkpt lat="45.7577" lon="6.53153">
        <ele>1643</ele>
        <time>2025-06-19T15:00:06Z</time>
      </trkpt>
      <trkpt lat="45.75776" lon="6.53148">
        <ele>1643</ele>
        <time>2025-06-19T15:00:08Z</time>
      </trkpt>
      <trkpt lat="45.75782" lon="6.53147">
        <ele>1644</ele>
        <time>2025-06-19T15:00:09Z</time>
      </trkpt>
      <trkpt lat="45.75779" lon="6.53159">
        <ele>1644</ele>
        <time>2025-06-19T15:00:12Z</time>
      </trkpt>
      <trkpt lat="45.75772" lon="6.53219">
        <ele>1644</ele>
        <time>2025-06-19T15:00:21Z</time>
      </trkpt>
      <trkpt lat="45.75774" lon="6.53277">
        <ele>1645</ele>
        <time>2025-06-19T15:00:31Z</time>
      </trkpt>
      <trkpt lat="45.75778" lon="6.53316">
        <ele>1644</ele>
        <time>2025-06-19T15:00:37Z</time>
      </trkpt>
      <trkpt lat="45.75786" lon="6.53336">
        <ele>1645</ele>
        <time>2025-06-19T15:00:41Z</time>
      </trkpt>
      <trkpt lat="45.75798" lon="6.53353">
        <ele>1646</ele>
        <time>2025-06-19T15:00:45Z</time>
      </trkpt>
      <trkpt lat="45.75802" lon="6.53356">
        <ele>1647</ele>
        <time>2025-06-19T15:00:46Z</time>
      </trkpt>
      <trkpt lat="45.75807" lon="6.53358">
        <ele>1647</ele>
        <time>2025-06-19T15:00:47Z</time>
      </trkpt>
      <trkpt lat="45.75816" lon="6.53358">
        <ele>1649</ele>
        <time>2025-06-19T15:00:49Z</time>
      </trkpt>
      <trkpt lat="45.75828" lon="6.53355">
        <ele>1650</ele>
        <time>2025-06-19T15:00:52Z</time>
      </trkpt>
      <trkpt lat="45.7583" lon="6.53354">
        <ele>1651</ele>
        <time>2025-06-19T15:00:53Z</time>
      </trkpt>
      <trkpt lat="45.75888" lon="6.53387">
        <ele>1654</ele>
        <time>2025-06-19T15:01:07Z</time>
      </trkpt>
      <trkpt lat="45.7591" lon="6.53407">
        <ele>1655</ele>
        <time>2025-06-19T15:01:13Z</time>
      </trkpt>
      <trkpt lat="45.75935" lon="6.53425">
        <ele>1657</ele>
        <time>2025-06-19T15:01:20Z</time>
      </trkpt>
      <trkpt lat="45.75939" lon="6.53426">
        <ele>1658</ele>
        <time>2025-06-19T15:01:21Z</time>
      </trkpt>
      <trkpt lat="45.75939" lon="6.53421">
        <ele>1657</ele>
        <time>2025-06-19T15:01:22Z</time>
      </trkpt>
      <trkpt lat="45.75941" lon="6.53418">
        <ele>1657</ele>
        <time>2025-06-19T15:01:22Z</time>
      </trkpt>
      <trkpt lat="45.75944" lon="6.53415">
        <ele>1658</ele>
        <time>2025-06-19T15:01:23Z</time>
      </trkpt>
      <trkpt lat="45.75947" lon="6.53414">
        <ele>1658</ele>
        <time>2025-06-19T15:01:24Z</time>
      </trkpt>
      <trkpt lat="45.7595" lon="6.53414">
        <ele>1658</ele>
        <time>2025-06-19T15:01:25Z</time>
      </trkpt>
      <trkpt lat="45.75952" lon="6.53416">
        <ele>1658</ele>
        <time>2025-06-19T15:01:25Z</time>
      </trkpt>
      <trkpt lat="45.75955" lon="6.53419">
        <ele>1658</ele>
        <time>2025-06-19T15:01:26Z</time>
      </trkpt>
      <trkpt lat="45.75982" lon="6.5339">
        <ele>1659</ele>
        <time>2025-06-19T15:01:34Z</time>
      </trkpt>
      <trkpt lat="45.75999" lon="6.53376">
        <ele>1659</ele>
        <time>2025-06-19T15:01:38Z</time>
      </trkpt>
      <trkpt lat="45.76015" lon="6.53367">
        <ele>1660</ele>
        <time>2025-06-19T15:01:43Z</time>
      </trkpt>
      <trkpt lat="45.76032" lon="6.53359">
        <ele>1660</ele>
        <time>2025-06-19T15:01:47Z</time>
      </trkpt>
      <trkpt lat="45.76035" lon="6.53358">
        <ele>1660</ele>
        <time>2025-06-19T15:01:47Z</time>
      </trkpt>
      <trkpt lat="45.76039" lon="6.53378">
        <ele>1661</ele>
        <time>2025-06-19T15:01:51Z</time>
      </trkpt>
      <trkpt lat="45.76037" lon="6.53386">
        <ele>1661</ele>
        <time>2025-06-19T15:01:52Z</time>
      </trkpt>
      <trkpt lat="45.76031" lon="6.53396">
        <ele>1661</ele>
        <time>2025-06-19T15:01:54Z</time>
      </trkpt>
      <trkpt lat="45.76023" lon="6.53406">
        <ele>1661</ele>
        <time>2025-06-19T15:01:57Z</time>
      </trkpt>
      <trkpt lat="45.76006" lon="6.53421">
        <ele>1661</ele>
        <time>2025-06-19T15:02:01Z</time>
      </trkpt>
      <trkpt lat="45.76" lon="6.53427">
        <ele>1661</ele>
        <time>2025-06-19T15:02:03Z</time>
      </trkpt>
      <trkpt lat="45.75997" lon="6.53432">
        <ele>1661</ele>
        <time>2025-06-19T15:02:04Z</time>
      </trkpt>
      <trkpt lat="45.75993" lon="6.5344">
        <ele>1661</ele>
        <time>2025-06-19T15:02:06Z</time>
      </trkpt>
      <trkpt lat="45.7599" lon="6.53453">
        <ele>1661</ele>
        <time>2025-06-19T15:02:08Z</time>
      </trkpt>
      <trkpt lat="45.7599" lon="6.5346">
        <ele>1661</ele>
        <time>2025-06-19T15:02:09Z</time>
      </trkpt>
      <trkpt lat="45.7599" lon="6.53466">
        <ele>1662</ele>
        <time>2025-06-19T15:02:10Z</time>
      </trkpt>
      <trkpt lat="45.75992" lon="6.53477">
        <ele>1662</ele>
        <time>2025-06-19T15:02:12Z</time>
      </trkpt>
      <trkpt lat="45.75981" lon="6.53491">
        <ele>1662</ele>
        <time>2025-06-19T15:02:15Z</time>
      </trkpt>
      <trkpt lat="45.75976" lon="6.53507">
        <ele>1662</ele>
        <time>2025-06-19T15:02:18Z</time>
      </trkpt>
      <trkpt lat="45.75972" lon="6.53511">
        <ele>1662</ele>
        <time>2025-06-19T15:02:19Z</time>
      </trkpt>
      <trkpt lat="45.75963" lon="6.53541">
        <ele>1662</ele>
        <time>2025-06-19T15:02:25Z</time>
      </trkpt>
      <trkpt lat="45.7596" lon="6.53547">
        <ele>1662</ele>
        <time>2025-06-19T15:02:26Z</time>
      </trkpt>
      <trkpt lat="45.75945" lon="6.53576">
        <ele>1662</ele>
        <time>2025-06-19T15:02:32Z</time>
      </trkpt>
      <trkpt lat="45.7594" lon="6.53583">
        <ele>1662</ele>
        <time>2025-06-19T15:02:34Z</time>
      </trkpt>
      <trkpt lat="45.75926" lon="6.5359">
        <ele>1660</ele>
        <time>2025-06-19T15:02:37Z</time>
      </trkpt>
      <trkpt lat="45.75922" lon="6.5359">
        <ele>1660</ele>
        <time>2025-06-19T15:02:38Z</time>
      </trkpt>
      <trkpt lat="45.75928" lon="6.536">
        <ele>1661</ele>
        <time>2025-06-19T15:02:40Z</time>
      </trkpt>
      <trkpt lat="45.75933" lon="6.53616">
        <ele>1663</ele>
        <time>2025-06-19T15:02:43Z</time>
      </trkpt>
      <trkpt lat="45.75932" lon="6.53626">
        <ele>1663</ele>
        <time>2025-06-19T15:02:45Z</time>
      </trkpt>
      <trkpt lat="45.75933" lon="6.53639">
        <ele>1664</ele>
        <time>2025-06-19T15:02:47Z</time>
      </trkpt>
      <trkpt lat="45.75936" lon="6.53648">
        <ele>1665</ele>
        <time>2025-06-19T15:02:48Z</time>
      </trkpt>
      <trkpt lat="45.75937" lon="6.53661">
        <ele>1666</ele>
        <time>2025-06-19T15:02:50Z</time>
      </trkpt>
      <trkpt lat="45.75939" lon="6.53691">
        <ele>1669</ele>
        <time>2025-06-19T15:02:55Z</time>
      </trkpt>
      <trkpt lat="45.7594" lon="6.53702">
        <ele>1670</ele>
        <time>2025-06-19T15:02:57Z</time>
      </trkpt>
      <trkpt lat="45.75948" lon="6.53722">
        <ele>1672</ele>
        <time>2025-06-19T15:03:01Z</time>
      </trkpt>
      <trkpt lat="45.75951" lon="6.53733">
        <ele>1674</ele>
        <time>2025-06-19T15:03:03Z</time>
      </trkpt>
      <trkpt lat="45.7595" lon="6.53765">
        <ele>1676</ele>
        <time>2025-06-19T15:03:08Z</time>
      </trkpt>
      <trkpt lat="45.75946" lon="6.53804">
        <ele>1679</ele>
        <time>2025-06-19T15:03:15Z</time>
      </trkpt>
      <trkpt lat="45.75943" lon="6.53829">
        <ele>1681</ele>
        <time>2025-06-19T15:03:19Z</time>
      </trkpt>
      <trkpt lat="45.75934" lon="6.53862">
        <ele>1683</ele>
        <time>2025-06-19T15:03:24Z</time>
      </trkpt>
      <trkpt lat="45.75927" lon="6.53891">
        <ele>1684</ele>
        <time>2025-06-19T15:03:29Z</time>
      </trkpt>
      <trkpt lat="45.75924" lon="6.539">
        <ele>1684</ele>
        <time>2025-06-19T15:03:31Z</time>
      </trkpt>
      <trkpt lat="45.75919" lon="6.53917">
        <ele>1685</ele>
        <time>2025-06-19T15:03:34Z</time>
      </trkpt>
      <trkpt lat="45.75919" lon="6.53953">
        <ele>1688</ele>
        <time>2025-06-19T15:03:40Z</time>
      </trkpt>
      <trkpt lat="45.7592" lon="6.53973">
        <ele>1690</ele>
        <time>2025-06-19T15:03:43Z</time>
      </trkpt>
      <trkpt lat="45.75921" lon="6.54028">
        <ele>1693</ele>
        <time>2025-06-19T15:03:52Z</time>
      </trkpt>
      <trkpt lat="45.75928" lon="6.54046">
        <ele>1696</ele>
        <time>2025-06-19T15:03:55Z</time>
      </trkpt>
      <trkpt lat="45.75939" lon="6.54114">
        <ele>1703</ele>
        <time>2025-06-19T15:04:07Z</time>
      </trkpt>
      <trkpt lat="45.75942" lon="6.54126">
        <ele>1704</ele>
        <time>2025-06-19T15:04:09Z</time>
      </trkpt>
      <trkpt lat="45.75935" lon="6.54182">
        <ele>1705</ele>
        <time>2025-06-19T15:04:18Z</time>
      </trkpt>
      <trkpt lat="45.7594" lon="6.5421">
        <ele>1709</ele>
        <time>2025-06-19T15:04:23Z</time>
      </trkpt>
      <trkpt lat="45.75941" lon="6.54249">
        <ele>1711</ele>
        <time>2025-06-19T15:04:29Z</time>
      </trkpt>
      <trkpt lat="45.7594" lon="6.54274">
        <ele>1713</ele>
        <time>2025-06-19T15:04:33Z</time>
      </trkpt>
      <trkpt lat="45.75937" lon="6.54301">
        <ele>1714</ele>
        <time>2025-06-19T15:04:38Z</time>
      </trkpt>
      <trkpt lat="45.75942" lon="6.54324">
        <ele>1718</ele>
        <time>2025-06-19T15:04:42Z</time>
      </trkpt>
      <trkpt lat="45.75948" lon="6.54379">
        <ele>1722</ele>
        <time>2025-06-19T15:04:51Z</time>
      </trkpt>
      <trkpt lat="45.7596" lon="6.54465">
        <ele>1732</ele>
        <time>2025-06-19T15:05:05Z</time>
      </trkpt>
      <trkpt lat="45.75963" lon="6.54499">
        <ele>1736</ele>
        <time>2025-06-19T15:05:11Z</time>
      </trkpt>
      <trkpt lat="45.75965" lon="6.54538">
        <ele>1741</ele>
        <time>2025-06-19T15:05:17Z</time>
      </trkpt>
      <trkpt lat="45.75962" lon="6.54557">
        <ele>1743</ele>
        <time>2025-06-19T15:05:20Z</time>
      </trkpt>
      <trkpt lat="45.75962" lon="6.54574">
        <ele>1745</ele>
        <time>2025-06-19T15:05:23Z</time>
      </trkpt>
      <trkpt lat="45.75958" lon="6.54588">
        <ele>1745</ele>
        <time>2025-06-19T15:05:25Z</time>
      </trkpt>
      <trkpt lat="45.75957" lon="6.54598">
        <ele>1746</ele>
        <time>2025-06-19T15:05:27Z</time>
      </trkpt>
      <trkpt lat="45.75955" lon="6.54632">
        <ele>1749</ele>
        <time>2025-06-19T15:05:33Z</time>
      </trkpt>
      <trkpt lat="45.75954" lon="6.54664">
        <ele>1752</ele>
        <time>2025-06-19T15:05:38Z</time>
      </trkpt>
      <trkpt lat="45.75954" lon="6.54686">
        <ele>1753</ele>
        <time>2025-06-19T15:05:41Z</time>
      </trkpt>
      <trkpt lat="45.75956" lon="6.54709">
        <ele>1754</ele>
        <time>2025-06-19T15:05:45Z</time>
      </trkpt>
      <trkpt lat="45.75958" lon="6.54721">
        <ele>1755</ele>
        <time>2025-06-19T15:05:47Z</time>
      </trkpt>
      <trkpt lat="45.75961" lon="6.54733">
        <ele>1756</ele>
        <time>2025-06-19T15:05:49Z</time>
      </trkpt>
      <trkpt lat="45.75985" lon="6.54806">
        <ele>1762</ele>
        <time>2025-06-19T15:06:02Z</time>
      </trkpt>
      <trkpt lat="45.75992" lon="6.54824">
        <ele>1764</ele>
        <time>2025-06-19T15:06:06Z</time>
      </trkpt>
      <trkpt lat="45.76001" lon="6.54853">
        <ele>1766</ele>
        <time>2025-06-19T15:06:11Z</time>
      </trkpt>
      <trkpt lat="45.76013" lon="6.54916">
        <ele>1769</ele>
        <time>2025-06-19T15:06:22Z</time>
      </trkpt>
      <trkpt lat="45.76009" lon="6.54936">
        <ele>1770</ele>
        <time>2025-06-19T15:06:25Z</time>
      </trkpt>
      <trkpt lat="45.76006" lon="6.54975">
        <ele>1771</ele>
        <time>2025-06-19T15:06:31Z</time>
      </trkpt>
      <trkpt lat="45.76004" lon="6.54988">
        <ele>1772</ele>
        <time>2025-06-19T15:06:34Z</time>
      </trkpt>
      <trkpt lat="45.76001" lon="6.54999">
        <ele>1772</ele>
        <time>2025-06-19T15:06:36Z</time>
      </trkpt>
      <trkpt lat="45.76" lon="6.55009">
        <ele>1773</ele>
        <time>2025-06-19T15:06:37Z</time>
      </trkpt>
      <trkpt lat="45.75992" lon="6.5502">
        <ele>1773</ele>
        <time>2025-06-19T15:06:40Z</time>
      </trkpt>
      <trkpt lat="45.75994" lon="6.55093">
        <ele>1778</ele>
        <time>2025-06-19T15:06:52Z</time>
      </trkpt>
      <trkpt lat="45.75996" lon="6.55134">
        <ele>1781</ele>
        <time>2025-06-19T15:06:58Z</time>
      </trkpt>
      <trkpt lat="45.76001" lon="6.55166">
        <ele>1783</ele>
        <time>2025-06-19T15:07:04Z</time>
      </trkpt>
      <trkpt lat="45.76005" lon="6.55179">
        <ele>1784</ele>
        <time>2025-06-19T15:07:06Z</time>
      </trkpt>
      <trkpt lat="45.76007" lon="6.55185">
        <ele>1784</ele>
        <time>2025-06-19T15:07:07Z</time>
      </trkpt>
      <trkpt lat="45.76015" lon="6.55194">
        <ele>1785</ele>
        <time>2025-06-19T15:07:09Z</time>
      </trkpt>
      <trkpt lat="45.76045" lon="6.55233">
        <ele>1786</ele>
        <time>2025-06-19T15:07:19Z</time>
      </trkpt>
      <trkpt lat="45.76038" lon="6.5524">
        <ele>1787</ele>
        <time>2025-06-19T15:07:21Z</time>
      </trkpt>
      <trkpt lat="45.76045" lon="6.55233">
        <ele>1786</ele>
        <time>2025-06-19T15:07:23Z</time>
      </trkpt>
      <trkpt lat="45.76063" lon="6.55254">
        <ele>1786</ele>
        <time>2025-06-19T15:07:28Z</time>
      </trkpt>
      <trkpt lat="45.76064" lon="6.55243">
        <ele>1786</ele>
        <time>2025-06-19T15:07:30Z</time>
      </trkpt>
      <trkpt lat="45.76066" lon="6.55236">
        <ele>1786</ele>
        <time>2025-06-19T15:07:31Z</time>
      </trkpt>
      <trkpt lat="45.76078" lon="6.55218">
        <ele>1786</ele>
        <time>2025-06-19T15:07:35Z</time>
      </trkpt>
      <trkpt lat="45.76088" lon="6.55196">
        <ele>1786</ele>
        <time>2025-06-19T15:07:40Z</time>
      </trkpt>
      <trkpt lat="45.76101" lon="6.5515">
        <ele>1786</ele>
        <time>2025-06-19T15:07:48Z</time>
      </trkpt>
      <trkpt lat="45.76109" lon="6.55127">
        <ele>1786</ele>
        <time>2025-06-19T15:07:52Z</time>
      </trkpt>
      <trkpt lat="45.76125" lon="6.551">
        <ele>1787</ele>
        <time>2025-06-19T15:07:58Z</time>
      </trkpt>
      <trkpt lat="45.76157" lon="6.55076">
        <ele>1790</ele>
        <time>2025-06-19T15:08:06Z</time>
      </trkpt>
      <trkpt lat="45.76164" lon="6.55068">
        <ele>1791</ele>
        <time>2025-06-19T15:08:08Z</time>
      </trkpt>
      <trkpt lat="45.7617" lon="6.55061">
        <ele>1791</ele>
        <time>2025-06-19T15:08:10Z</time>
      </trkpt>
      <trkpt lat="45.76181" lon="6.55036">
        <ele>1793</ele>
        <time>2025-06-19T15:08:15Z</time>
      </trkpt>
      <trkpt lat="45.76199" lon="6.54991">
        <ele>1795</ele>
        <time>2025-06-19T15:08:23Z</time>
      </trkpt>
      <trkpt lat="45.76219" lon="6.54925">
        <ele>1799</ele>
        <time>2025-06-19T15:08:35Z</time>
      </trkpt>
      <trkpt lat="45.7624" lon="6.54844">
        <ele>1803</ele>
        <time>2025-06-19T15:08:49Z</time>
      </trkpt>
      <trkpt lat="45.76245" lon="6.54825">
        <ele>1804</ele>
        <time>2025-06-19T15:08:52Z</time>
      </trkpt>
      <trkpt lat="45.76277" lon="6.54748">
        <ele>1807</ele>
        <time>2025-06-19T15:09:07Z</time>
      </trkpt>
      <trkpt lat="45.76269" lon="6.54724">
        <ele>1806</ele>
        <time>2025-06-19T15:09:11Z</time>
      </trkpt>
      <trkpt lat="45.76265" lon="6.54668">
        <ele>1804</ele>
        <time>2025-06-19T15:09:21Z</time>
      </trkpt>
      <trkpt lat="45.76245" lon="6.54604">
        <ele>1799</ele>
        <time>2025-06-19T15:09:32Z</time>
      </trkpt>
      <trkpt lat="45.76247" lon="6.54612">
        <ele>1800</ele>
        <time>2025-06-19T15:09:33Z</time>
      </trkpt>
      <trkpt lat="45.76236" lon="6.54561">
        <ele>1796</ele>
        <time>2025-06-19T15:09:42Z</time>
      </trkpt>
      <trkpt lat="45.76208" lon="6.5455">
        <ele>1794</ele>
        <time>2025-06-19T15:09:49Z</time>
      </trkpt>
      <trkpt lat="45.76186" lon="6.54546">
        <ele>1793</ele>
        <time>2025-06-19T15:09:54Z</time>
      </trkpt>
      <trkpt lat="45.76157" lon="6.54498">
        <ele>1788</ele>
        <time>2025-06-19T15:10:04Z</time>
      </trkpt>
      <trkpt lat="45.76151" lon="6.54472">
        <ele>1785</ele>
        <time>2025-06-19T15:10:09Z</time>
      </trkpt>
      <trkpt lat="45.76146" lon="6.54433">
        <ele>1781</ele>
        <time>2025-06-19T15:10:15Z</time>
      </trkpt>
      <trkpt lat="45.76155" lon="6.54397">
        <ele>1778</ele>
        <time>2025-06-19T15:10:22Z</time>
      </trkpt>
      <trkpt lat="45.76148" lon="6.54438">
        <ele>1782</ele>
        <time>2025-06-19T15:10:28Z</time>
      </trkpt>
      <trkpt lat="45.76172" lon="6.54341">
        <ele>1773</ele>
        <time>2025-06-19T15:10:45Z</time>
      </trkpt>
      <trkpt lat="45.76167" lon="6.54298">
        <ele>1769</ele>
        <time>2025-06-19T15:10:52Z</time>
      </trkpt>
      <trkpt lat="45.76159" lon="6.54267">
        <ele>1765</ele>
        <time>2025-06-19T15:10:58Z</time>
      </trkpt>
      <trkpt lat="45.76135" lon="6.54211">
        <ele>1756</ele>
        <time>2025-06-19T15:11:08Z</time>
      </trkpt>
      <trkpt lat="45.76141" lon="6.54241">
        <ele>1759</ele>
        <time>2025-06-19T15:11:13Z</time>
      </trkpt>
      <trkpt lat="45.7613" lon="6.54183">
        <ele>1752</ele>
        <time>2025-06-19T15:11:23Z</time>
      </trkpt>
      <trkpt lat="45.76123" lon="6.54153">
        <ele>1748</ele>
        <time>2025-06-19T15:11:28Z</time>
      </trkpt>
      <trkpt lat="45.76121" lon="6.54112">
        <ele>1744</ele>
        <time>2025-06-19T15:11:35Z</time>
      </trkpt>
      <trkpt lat="45.76109" lon="6.54084">
        <ele>1741</ele>
        <time>2025-06-19T15:11:40Z</time>
      </trkpt>
      <trkpt lat="45.76109" lon="6.54057">
        <ele>1738</ele>
        <time>2025-06-19T15:11:45Z</time>
      </trkpt>
      <trkpt lat="45.76108" lon="6.54023">
        <ele>1735</ele>
        <time>2025-06-19T15:11:50Z</time>
      </trkpt>
      <trkpt lat="45.76082" lon="6.54005">
        <ele>1733</ele>
        <time>2025-06-19T15:11:57Z</time>
      </trkpt>
      <trkpt lat="45.76087" lon="6.53968">
        <ele>1728</ele>
        <time>2025-06-19T15:12:03Z</time>
      </trkpt>
      <trkpt lat="45.76113" lon="6.53947">
        <ele>1723</ele>
        <time>2025-06-19T15:12:10Z</time>
      </trkpt>
      <trkpt lat="45.7613" lon="6.53935">
        <ele>1721</ele>
        <time>2025-06-19T15:12:15Z</time>
      </trkpt>
      <trkpt lat="45.76126" lon="6.53914">
        <ele>1718</ele>
        <time>2025-06-19T15:12:18Z</time>
      </trkpt>
      <trkpt lat="45.76097" lon="6.53905">
        <ele>1717</ele>
        <time>2025-06-19T15:12:25Z</time>
      </trkpt>
      <trkpt lat="45.76129" lon="6.53852">
        <ele>1710</ele>
        <time>2025-06-19T15:12:37Z</time>
      </trkpt>
      <trkpt lat="45.76114" lon="6.53833">
        <ele>1706</ele>
        <time>2025-06-19T15:12:41Z</time>
      </trkpt>
      <trkpt lat="45.76095" lon="6.53807">
        <ele>1703</ele>
        <time>2025-06-19T15:12:47Z</time>
      </trkpt>
      <trkpt lat="45.76069" lon="6.53801">
        <ele>1699</ele>
        <time>2025-06-19T15:12:54Z</time>
      </trkpt>
      <trkpt lat="45.7606" lon="6.538">
        <ele>1698</ele>
        <time>2025-06-19T15:12:56Z</time>
      </trkpt>
      <trkpt lat="45.76061" lon="6.53796">
        <ele>1697</ele>
        <time>2025-06-19T15:12:56Z</time>
      </trkpt>
      <trkpt lat="45.76062" lon="6.53785">
        <ele>1696</ele>
        <time>2025-06-19T15:12:58Z</time>
      </trkpt>
      <trkpt lat="45.76058" lon="6.53745">
        <ele>1691</ele>
        <time>2025-06-19T15:13:05Z</time>
      </trkpt>
      <trkpt lat="45.76049" lon="6.53694">
        <ele>1685</ele>
        <time>2025-06-19T15:13:13Z</time>
      </trkpt>
      <trkpt lat="45.76048" lon="6.53677">
        <ele>1683</ele>
        <time>2025-06-19T15:13:16Z</time>
      </trkpt>
      <trkpt lat="45.76048" lon="6.53666">
        <ele>1682</ele>
        <time>2025-06-19T15:13:18Z</time>
      </trkpt>
      <trkpt lat="45.7605" lon="6.53651">
        <ele>1681</ele>
        <time>2025-06-19T15:13:20Z</time>
      </trkpt>
      <trkpt lat="45.76057" lon="6.53619">
        <ele>1678</ele>
        <time>2025-06-19T15:13:26Z</time>
      </trkpt>
      <trkpt lat="45.76068" lon="6.53594">
        <ele>1677</ele>
        <time>2025-06-19T15:13:31Z</time>
      </trkpt>
      <trkpt lat="45.76092" lon="6.53535">
        <ele>1674</ele>
        <time>2025-06-19T15:13:42Z</time>
      </trkpt>
      <trkpt lat="45.76105" lon="6.53522">
        <ele>1674</ele>
        <time>2025-06-19T15:13:45Z</time>
      </trkpt>
      <trkpt lat="45.7612" lon="6.53517">
        <ele>1674</ele>
        <time>2025-06-19T15:13:49Z</time>
      </trkpt>
      <trkpt lat="45.76125" lon="6.53511">
        <ele>1674</ele>
        <time>2025-06-19T15:13:51Z</time>
      </trkpt>
      <trkpt lat="45.76126" lon="6.5351">
        <ele>1674</ele>
        <time>2025-06-19T15:13:51Z</time>
      </trkpt>
      <trkpt lat="45.76126" lon="6.53504">
        <ele>1673</ele>
        <time>2025-06-19T15:13:52Z</time>
      </trkpt>
      <trkpt lat="45.76125" lon="6.53494">
        <ele>1672</ele>
        <time>2025-06-19T15:13:53Z</time>
      </trkpt>
      <trkpt lat="45.76122" lon="6.53492">
        <ele>1672</ele>
        <time>2025-06-19T15:13:54Z</time>
      </trkpt>
      <trkpt lat="45.76119" lon="6.5349">
        <ele>1671</ele>
        <time>2025-06-19T15:13:55Z</time>
      </trkpt>
      <trkpt lat="45.7611" lon="6.5349">
        <ele>1671</ele>
        <time>2025-06-19T15:13:57Z</time>
      </trkpt>
      <trkpt lat="45.76024" lon="6.535">
        <ele>1665</ele>
        <time>2025-06-19T15:14:17Z</time>
      </trkpt>
      <trkpt lat="45.76016" lon="6.53499">
        <ele>1664</ele>
        <time>2025-06-19T15:14:19Z</time>
      </trkpt>
      <trkpt lat="45.76005" lon="6.53495">
        <ele>1663</ele>
        <time>2025-06-19T15:14:22Z</time>
      </trkpt>
      <trkpt lat="45.76001" lon="6.53492">
        <ele>1663</ele>
        <time>2025-06-19T15:14:23Z</time>
      </trkpt>
      <trkpt lat="45.75997" lon="6.53487">
        <ele>1663</ele>
        <time>2025-06-19T15:14:24Z</time>
      </trkpt>
      <trkpt lat="45.75992" lon="6.53477">
        <ele>1662</ele>
        <time>2025-06-19T15:14:26Z</time>
      </trkpt>
      <trkpt lat="45.7599" lon="6.53466">
        <ele>1662</ele>
        <time>2025-06-19T15:14:28Z</time>
      </trkpt>
      <trkpt lat="45.7599" lon="6.5346">
        <ele>1661</ele>
        <time>2025-06-19T15:14:29Z</time>
      </trkpt>
      <trkpt lat="45.7599" lon="6.53453">
        <ele>1661</ele>
        <time>2025-06-19T15:14:30Z</time>
      </trkpt>
      <trkpt lat="45.75993" lon="6.5344">
        <ele>1661</ele>
        <time>2025-06-19T15:14:32Z</time>
      </trkpt>
      <trkpt lat="45.75997" lon="6.53432">
        <ele>1661</ele>
        <time>2025-06-19T15:14:34Z</time>
      </trkpt>
      <trkpt lat="45.76" lon="6.53427">
        <ele>1661</ele>
        <time>2025-06-19T15:14:35Z</time>
      </trkpt>
      <trkpt lat="45.76006" lon="6.53421">
        <ele>1661</ele>
        <time>2025-06-19T15:14:37Z</time>
      </trkpt>
      <trkpt lat="45.76023" lon="6.53406">
        <ele>1661</ele>
        <time>2025-06-19T15:14:41Z</time>
      </trkpt>
      <trkpt lat="45.76031" lon="6.53396">
        <ele>1661</ele>
        <time>2025-06-19T15:14:44Z</time>
      </trkpt>
      <trkpt lat="45.76037" lon="6.53386">
        <ele>1661</ele>
        <time>2025-06-19T15:14:46Z</time>
      </trkpt>
      <trkpt lat="45.76039" lon="6.53378">
        <ele>1661</ele>
        <time>2025-06-19T15:14:47Z</time>
      </trkpt>
      <trkpt lat="45.76035" lon="6.53358">
        <ele>1660</ele>
        <time>2025-06-19T15:14:51Z</time>
      </trkpt>
      <trkpt lat="45.76032" lon="6.53359">
        <ele>1660</ele>
        <time>2025-06-19T15:14:51Z</time>
      </trkpt>
      <trkpt lat="45.76022" lon="6.53363">
        <ele>1660</ele>
        <time>2025-06-19T15:14:54Z</time>
      </trkpt>
      <trkpt lat="45.75999" lon="6.53376">
        <ele>1659</ele>
        <time>2025-06-19T15:15:00Z</time>
      </trkpt>
    </trkseg>
  </trk>
</gpx>